<?xml version="1.0" encoding="UTF-8" standalone="no" ?>
<gpx xmlns="http://www.topografix.com/GPX/1/1" xmlns:xsi="http://www.w3.org/2001/XMLSchema-instance" xsi:schemaLocation="http://www.topografix.com/GPX/1/1 http://www.topografix.com/GPX/1/1/gpx.xsd" version="1.1" creator="VisuGPX - https://www.visugpx.com">
  <metadata>
    <name>première de M@rc</name>
    <desc><![CDATA[enduro rivolet altitudes corrigées]]></desc>
  </metadata>
  <trk>
    <name><![CDATA[ACTIVE LOG140404]]></name>
    <trkseg>
      <trkpt lat="46.00629" lon="4.60101">
        <ele>344</ele>
        <time>2012-06-02T12:04:02Z</time>
      </trkpt>
      <trkpt lat="46.00623" lon="4.60097">
        <ele>343</ele>
        <time>2012-06-02T12:05:34Z</time>
      </trkpt>
      <trkpt lat="46.00623" lon="4.60094">
        <ele>343</ele>
        <time>2012-06-02T12:05:47Z</time>
      </trkpt>
      <trkpt lat="46.00627" lon="4.60092">
        <ele>343</ele>
        <time>2012-06-02T12:05:58Z</time>
      </trkpt>
      <trkpt lat="46.0063" lon="4.60085">
        <ele>344</ele>
        <time>2012-06-02T12:06:03Z</time>
      </trkpt>
      <trkpt lat="46.00627" lon="4.60079">
        <ele>343</ele>
        <time>2012-06-02T12:06:08Z</time>
      </trkpt>
      <trkpt lat="46.00624" lon="4.60076">
        <ele>343</ele>
        <time>2012-06-02T12:06:10Z</time>
      </trkpt>
      <trkpt lat="46.00617" lon="4.60075">
        <ele>342</ele>
        <time>2012-06-02T12:06:15Z</time>
      </trkpt>
      <trkpt lat="46.00612" lon="4.6007">
        <ele>342</ele>
        <time>2012-06-02T12:06:20Z</time>
      </trkpt>
      <trkpt lat="46.00613" lon="4.60067">
        <ele>342</ele>
        <time>2012-06-02T12:06:22Z</time>
      </trkpt>
      <trkpt lat="46.00614" lon="4.60051">
        <ele>343</ele>
        <time>2012-06-02T12:06:30Z</time>
      </trkpt>
      <trkpt lat="46.0061" lon="4.60026">
        <ele>343</ele>
        <time>2012-06-02T12:06:38Z</time>
      </trkpt>
      <trkpt lat="46.00612" lon="4.59985">
        <ele>345</ele>
        <time>2012-06-02T12:06:48Z</time>
      </trkpt>
      <trkpt lat="46.00617" lon="4.59938">
        <ele>347</ele>
        <time>2012-06-02T12:06:58Z</time>
      </trkpt>
      <trkpt lat="46.00619" lon="4.59884">
        <ele>349</ele>
        <time>2012-06-02T12:07:10Z</time>
      </trkpt>
      <trkpt lat="46.00618" lon="4.59845">
        <ele>348</ele>
        <time>2012-06-02T12:07:19Z</time>
      </trkpt>
      <trkpt lat="46.0062" lon="4.59819">
        <ele>350</ele>
        <time>2012-06-02T12:07:26Z</time>
      </trkpt>
      <trkpt lat="46.00633" lon="4.59822">
        <ele>352</ele>
        <time>2012-06-02T12:07:32Z</time>
      </trkpt>
      <trkpt lat="46.00655" lon="4.59812">
        <ele>354</ele>
        <time>2012-06-02T12:07:42Z</time>
      </trkpt>
      <trkpt lat="46.00673" lon="4.59798">
        <ele>362</ele>
        <time>2012-06-02T12:07:53Z</time>
      </trkpt>
      <trkpt lat="46.00692" lon="4.59782">
        <ele>364</ele>
        <time>2012-06-02T12:08:05Z</time>
      </trkpt>
      <trkpt lat="46.00708" lon="4.59768">
        <ele>365</ele>
        <time>2012-06-02T12:08:16Z</time>
      </trkpt>
      <trkpt lat="46.00723" lon="4.59759">
        <ele>366</ele>
        <time>2012-06-02T12:08:25Z</time>
      </trkpt>
      <trkpt lat="46.00741" lon="4.59749">
        <ele>370</ele>
        <time>2012-06-02T12:08:34Z</time>
      </trkpt>
      <trkpt lat="46.00757" lon="4.59745">
        <ele>372</ele>
        <time>2012-06-02T12:08:43Z</time>
      </trkpt>
      <trkpt lat="46.00771" lon="4.59739">
        <ele>376</ele>
        <time>2012-06-02T12:08:51Z</time>
      </trkpt>
      <trkpt lat="46.00788" lon="4.59726">
        <ele>378</ele>
        <time>2012-06-02T12:09:00Z</time>
      </trkpt>
      <trkpt lat="46.00816" lon="4.5972">
        <ele>379</ele>
        <time>2012-06-02T12:09:14Z</time>
      </trkpt>
      <trkpt lat="46.0083" lon="4.59729">
        <ele>379</ele>
        <time>2012-06-02T12:09:24Z</time>
      </trkpt>
      <trkpt lat="46.00825" lon="4.59748">
        <ele>379</ele>
        <time>2012-06-02T12:09:32Z</time>
      </trkpt>
      <trkpt lat="46.00806" lon="4.59766">
        <ele>379</ele>
        <time>2012-06-02T12:09:44Z</time>
      </trkpt>
      <trkpt lat="46.0079" lon="4.59782">
        <ele>379</ele>
        <time>2012-06-02T12:09:54Z</time>
      </trkpt>
      <trkpt lat="46.00774" lon="4.598">
        <ele>378</ele>
        <time>2012-06-02T12:10:04Z</time>
      </trkpt>
      <trkpt lat="46.00755" lon="4.5983">
        <ele>375</ele>
        <time>2012-06-02T12:10:18Z</time>
      </trkpt>
      <trkpt lat="46.00737" lon="4.59866">
        <ele>370</ele>
        <time>2012-06-02T12:10:33Z</time>
      </trkpt>
      <trkpt lat="46.00724" lon="4.59894">
        <ele>370</ele>
        <time>2012-06-02T12:10:45Z</time>
      </trkpt>
      <trkpt lat="46.0072" lon="4.59915">
        <ele>371</ele>
        <time>2012-06-02T12:10:52Z</time>
      </trkpt>
      <trkpt lat="46.00736" lon="4.59932">
        <ele>371</ele>
        <time>2012-06-02T12:11:03Z</time>
      </trkpt>
      <trkpt lat="46.00738" lon="4.59932">
        <ele>371</ele>
        <time>2012-06-02T12:11:04Z</time>
      </trkpt>
      <trkpt lat="46.00762" lon="4.59926">
        <ele>379</ele>
        <time>2012-06-02T12:11:17Z</time>
      </trkpt>
      <trkpt lat="46.00784" lon="4.59917">
        <ele>380</ele>
        <time>2012-06-02T12:11:30Z</time>
      </trkpt>
      <trkpt lat="46.00806" lon="4.5991">
        <ele>388</ele>
        <time>2012-06-02T12:11:41Z</time>
      </trkpt>
      <trkpt lat="46.00828" lon="4.59912">
        <ele>391</ele>
        <time>2012-06-02T12:11:53Z</time>
      </trkpt>
      <trkpt lat="46.00848" lon="4.59917">
        <ele>398</ele>
        <time>2012-06-02T12:12:05Z</time>
      </trkpt>
      <trkpt lat="46.00872" lon="4.59928">
        <ele>398</ele>
        <time>2012-06-02T12:12:17Z</time>
      </trkpt>
      <trkpt lat="46.00893" lon="4.59944">
        <ele>401</ele>
        <time>2012-06-02T12:12:30Z</time>
      </trkpt>
      <trkpt lat="46.00912" lon="4.59964">
        <ele>400</ele>
        <time>2012-06-02T12:12:42Z</time>
      </trkpt>
      <trkpt lat="46.00924" lon="4.59985">
        <ele>413</ele>
        <time>2012-06-02T12:12:53Z</time>
      </trkpt>
      <trkpt lat="46.00935" lon="4.60008">
        <ele>409</ele>
        <time>2012-06-02T12:13:04Z</time>
      </trkpt>
      <trkpt lat="46.00948" lon="4.60033">
        <ele>411</ele>
        <time>2012-06-02T12:13:17Z</time>
      </trkpt>
      <trkpt lat="46.00961" lon="4.60051">
        <ele>412</ele>
        <time>2012-06-02T12:13:28Z</time>
      </trkpt>
      <trkpt lat="46.00979" lon="4.60071">
        <ele>415</ele>
        <time>2012-06-02T12:13:43Z</time>
      </trkpt>
      <trkpt lat="46.00996" lon="4.60089">
        <ele>417</ele>
        <time>2012-06-02T12:13:56Z</time>
      </trkpt>
      <trkpt lat="46.01015" lon="4.6011">
        <ele>425</ele>
        <time>2012-06-02T12:14:09Z</time>
      </trkpt>
      <trkpt lat="46.01028" lon="4.6012">
        <ele>426</ele>
        <time>2012-06-02T12:14:20Z</time>
      </trkpt>
      <trkpt lat="46.0104" lon="4.6013">
        <ele>427</ele>
        <time>2012-06-02T12:14:30Z</time>
      </trkpt>
      <trkpt lat="46.01053" lon="4.60145">
        <ele>428</ele>
        <time>2012-06-02T12:14:41Z</time>
      </trkpt>
      <trkpt lat="46.01066" lon="4.60169">
        <ele>425</ele>
        <time>2012-06-02T12:14:55Z</time>
      </trkpt>
      <trkpt lat="46.01076" lon="4.60189">
        <ele>424</ele>
        <time>2012-06-02T12:15:06Z</time>
      </trkpt>
      <trkpt lat="46.01078" lon="4.60194">
        <ele>424</ele>
        <time>2012-06-02T12:15:09Z</time>
      </trkpt>
      <trkpt lat="46.01083" lon="4.60213">
        <ele>422</ele>
        <time>2012-06-02T12:15:19Z</time>
      </trkpt>
      <trkpt lat="46.01091" lon="4.60233">
        <ele>437</ele>
        <time>2012-06-02T12:15:28Z</time>
      </trkpt>
      <trkpt lat="46.01094" lon="4.6024">
        <ele>436</ele>
        <time>2012-06-02T12:15:31Z</time>
      </trkpt>
      <trkpt lat="46.011" lon="4.60256">
        <ele>434</ele>
        <time>2012-06-02T12:15:39Z</time>
      </trkpt>
      <trkpt lat="46.01103" lon="4.60263">
        <ele>435</ele>
        <time>2012-06-02T12:15:44Z</time>
      </trkpt>
      <trkpt lat="46.01116" lon="4.60282">
        <ele>439</ele>
        <time>2012-06-02T12:15:56Z</time>
      </trkpt>
      <trkpt lat="46.01121" lon="4.60291">
        <ele>439</ele>
        <time>2012-06-02T12:16:00Z</time>
      </trkpt>
      <trkpt lat="46.01131" lon="4.6032">
        <ele>440</ele>
        <time>2012-06-02T12:16:13Z</time>
      </trkpt>
      <trkpt lat="46.01138" lon="4.60337">
        <ele>441</ele>
        <time>2012-06-02T12:16:24Z</time>
      </trkpt>
      <trkpt lat="46.01146" lon="4.60355">
        <ele>442</ele>
        <time>2012-06-02T12:16:34Z</time>
      </trkpt>
      <trkpt lat="46.01154" lon="4.60371">
        <ele>442</ele>
        <time>2012-06-02T12:16:44Z</time>
      </trkpt>
      <trkpt lat="46.01163" lon="4.60387">
        <ele>442</ele>
        <time>2012-06-02T12:16:53Z</time>
      </trkpt>
      <trkpt lat="46.01173" lon="4.60412">
        <ele>450</ele>
        <time>2012-06-02T12:17:06Z</time>
      </trkpt>
      <trkpt lat="46.01184" lon="4.60441">
        <ele>451</ele>
        <time>2012-06-02T12:17:21Z</time>
      </trkpt>
      <trkpt lat="46.01199" lon="4.60464">
        <ele>453</ele>
        <time>2012-06-02T12:17:35Z</time>
      </trkpt>
      <trkpt lat="46.01208" lon="4.60475">
        <ele>454</ele>
        <time>2012-06-02T12:17:42Z</time>
      </trkpt>
      <trkpt lat="46.01212" lon="4.60482">
        <ele>454</ele>
        <time>2012-06-02T12:17:46Z</time>
      </trkpt>
      <trkpt lat="46.0122" lon="4.605">
        <ele>454</ele>
        <time>2012-06-02T12:17:56Z</time>
      </trkpt>
      <trkpt lat="46.01216" lon="4.60531">
        <ele>453</ele>
        <time>2012-06-02T12:18:09Z</time>
      </trkpt>
      <trkpt lat="46.01206" lon="4.60563">
        <ele>452</ele>
        <time>2012-06-02T12:18:21Z</time>
      </trkpt>
      <trkpt lat="46.01194" lon="4.60603">
        <ele>455</ele>
        <time>2012-06-02T12:18:34Z</time>
      </trkpt>
      <trkpt lat="46.01177" lon="4.6063">
        <ele>455</ele>
        <time>2012-06-02T12:18:45Z</time>
      </trkpt>
      <trkpt lat="46.01154" lon="4.60638">
        <ele>453</ele>
        <time>2012-06-02T12:18:56Z</time>
      </trkpt>
      <trkpt lat="46.01126" lon="4.60639">
        <ele>454</ele>
        <time>2012-06-02T12:19:09Z</time>
      </trkpt>
      <trkpt lat="46.01101" lon="4.60649">
        <ele>455</ele>
        <time>2012-06-02T12:19:22Z</time>
      </trkpt>
      <trkpt lat="46.01085" lon="4.60672">
        <ele>458</ele>
        <time>2012-06-02T12:19:33Z</time>
      </trkpt>
      <trkpt lat="46.01081" lon="4.60679">
        <ele>459</ele>
        <time>2012-06-02T12:19:38Z</time>
      </trkpt>
      <trkpt lat="46.01086" lon="4.60713">
        <ele>459</ele>
        <time>2012-06-02T12:19:50Z</time>
      </trkpt>
      <trkpt lat="46.01091" lon="4.60745">
        <ele>461</ele>
        <time>2012-06-02T12:20:03Z</time>
      </trkpt>
      <trkpt lat="46.01101" lon="4.60773">
        <ele>463</ele>
        <time>2012-06-02T12:20:15Z</time>
      </trkpt>
      <trkpt lat="46.01114" lon="4.60796">
        <ele>463</ele>
        <time>2012-06-02T12:20:27Z</time>
      </trkpt>
      <trkpt lat="46.01127" lon="4.60817">
        <ele>464</ele>
        <time>2012-06-02T12:20:39Z</time>
      </trkpt>
      <trkpt lat="46.01145" lon="4.60842">
        <ele>467</ele>
        <time>2012-06-02T12:20:53Z</time>
      </trkpt>
      <trkpt lat="46.01164" lon="4.60867">
        <ele>468</ele>
        <time>2012-06-02T12:21:07Z</time>
      </trkpt>
      <trkpt lat="46.01179" lon="4.6088">
        <ele>471</ele>
        <time>2012-06-02T12:21:17Z</time>
      </trkpt>
      <trkpt lat="46.01194" lon="4.60891">
        <ele>472</ele>
        <time>2012-06-02T12:21:27Z</time>
      </trkpt>
      <trkpt lat="46.01205" lon="4.609">
        <ele>473</ele>
        <time>2012-06-02T12:21:36Z</time>
      </trkpt>
      <trkpt lat="46.01219" lon="4.6091">
        <ele>473</ele>
        <time>2012-06-02T12:21:47Z</time>
      </trkpt>
      <trkpt lat="46.01235" lon="4.60923">
        <ele>477</ele>
        <time>2012-06-02T12:21:59Z</time>
      </trkpt>
      <trkpt lat="46.0125" lon="4.60933">
        <ele>480</ele>
        <time>2012-06-02T12:22:10Z</time>
      </trkpt>
      <trkpt lat="46.01266" lon="4.60943">
        <ele>482</ele>
        <time>2012-06-02T12:22:21Z</time>
      </trkpt>
      <trkpt lat="46.01282" lon="4.60952">
        <ele>483</ele>
        <time>2012-06-02T12:22:32Z</time>
      </trkpt>
      <trkpt lat="46.013" lon="4.60955">
        <ele>484</ele>
        <time>2012-06-02T12:22:45Z</time>
      </trkpt>
      <trkpt lat="46.01313" lon="4.60954">
        <ele>485</ele>
        <time>2012-06-02T12:22:54Z</time>
      </trkpt>
      <trkpt lat="46.0133" lon="4.60956">
        <ele>485</ele>
        <time>2012-06-02T12:23:06Z</time>
      </trkpt>
      <trkpt lat="46.01339" lon="4.60956">
        <ele>491</ele>
        <time>2012-06-02T12:23:12Z</time>
      </trkpt>
      <trkpt lat="46.01355" lon="4.60955">
        <ele>491</ele>
        <time>2012-06-02T12:23:24Z</time>
      </trkpt>
      <trkpt lat="46.01372" lon="4.60956">
        <ele>492</ele>
        <time>2012-06-02T12:23:35Z</time>
      </trkpt>
      <trkpt lat="46.01378" lon="4.60957">
        <ele>492</ele>
        <time>2012-06-02T12:23:38Z</time>
      </trkpt>
      <trkpt lat="46.01395" lon="4.60962">
        <ele>493</ele>
        <time>2012-06-02T12:23:49Z</time>
      </trkpt>
      <trkpt lat="46.01406" lon="4.60962">
        <ele>494</ele>
        <time>2012-06-02T12:23:56Z</time>
      </trkpt>
      <trkpt lat="46.01421" lon="4.60969">
        <ele>501</ele>
        <time>2012-06-02T12:24:08Z</time>
      </trkpt>
      <trkpt lat="46.01439" lon="4.60974">
        <ele>502</ele>
        <time>2012-06-02T12:24:20Z</time>
      </trkpt>
      <trkpt lat="46.01458" lon="4.60978">
        <ele>503</ele>
        <time>2012-06-02T12:24:33Z</time>
      </trkpt>
      <trkpt lat="46.01475" lon="4.60982">
        <ele>505</ele>
        <time>2012-06-02T12:24:45Z</time>
      </trkpt>
      <trkpt lat="46.0149" lon="4.60982">
        <ele>506</ele>
        <time>2012-06-02T12:24:55Z</time>
      </trkpt>
      <trkpt lat="46.01493" lon="4.60982">
        <ele>506</ele>
        <time>2012-06-02T12:24:58Z</time>
      </trkpt>
      <trkpt lat="46.01511" lon="4.60993">
        <ele>511</ele>
        <time>2012-06-02T12:25:09Z</time>
      </trkpt>
      <trkpt lat="46.01529" lon="4.60999">
        <ele>512</ele>
        <time>2012-06-02T12:25:19Z</time>
      </trkpt>
      <trkpt lat="46.01546" lon="4.61004">
        <ele>511</ele>
        <time>2012-06-02T12:25:30Z</time>
      </trkpt>
      <trkpt lat="46.01547" lon="4.61004">
        <ele>511</ele>
        <time>2012-06-02T12:25:31Z</time>
      </trkpt>
      <trkpt lat="46.01554" lon="4.61018">
        <ele>512</ele>
        <time>2012-06-02T12:25:36Z</time>
      </trkpt>
      <trkpt lat="46.01581" lon="4.61026">
        <ele>512</ele>
        <time>2012-06-02T12:25:48Z</time>
      </trkpt>
      <trkpt lat="46.01595" lon="4.61028">
        <ele>514</ele>
        <time>2012-06-02T12:25:57Z</time>
      </trkpt>
      <trkpt lat="46.01608" lon="4.61036">
        <ele>514</ele>
        <time>2012-06-02T12:26:07Z</time>
      </trkpt>
      <trkpt lat="46.0161" lon="4.61034">
        <ele>514</ele>
        <time>2012-06-02T12:26:26Z</time>
      </trkpt>
      <trkpt lat="46.01612" lon="4.61033">
        <ele>514</ele>
        <time>2012-06-02T12:26:29Z</time>
      </trkpt>
      <trkpt lat="46.01619" lon="4.61014">
        <ele>515</ele>
        <time>2012-06-02T12:26:38Z</time>
      </trkpt>
      <trkpt lat="46.01628" lon="4.60991">
        <ele>517</ele>
        <time>2012-06-02T12:26:48Z</time>
      </trkpt>
      <trkpt lat="46.01637" lon="4.60968">
        <ele>518</ele>
        <time>2012-06-02T12:27:00Z</time>
      </trkpt>
      <trkpt lat="46.01647" lon="4.60945">
        <ele>518</ele>
        <time>2012-06-02T12:27:12Z</time>
      </trkpt>
      <trkpt lat="46.01658" lon="4.60922">
        <ele>519</ele>
        <time>2012-06-02T12:27:24Z</time>
      </trkpt>
      <trkpt lat="46.01663" lon="4.60909">
        <ele>521</ele>
        <time>2012-06-02T12:27:29Z</time>
      </trkpt>
      <trkpt lat="46.01667" lon="4.60897">
        <ele>522</ele>
        <time>2012-06-02T12:27:35Z</time>
      </trkpt>
      <trkpt lat="46.01672" lon="4.6088">
        <ele>523</ele>
        <time>2012-06-02T12:27:44Z</time>
      </trkpt>
      <trkpt lat="46.01677" lon="4.60868">
        <ele>524</ele>
        <time>2012-06-02T12:27:51Z</time>
      </trkpt>
      <trkpt lat="46.01683" lon="4.60851">
        <ele>525</ele>
        <time>2012-06-02T12:28:00Z</time>
      </trkpt>
      <trkpt lat="46.01686" lon="4.6084">
        <ele>526</ele>
        <time>2012-06-02T12:28:07Z</time>
      </trkpt>
      <trkpt lat="46.01687" lon="4.60836">
        <ele>526</ele>
        <time>2012-06-02T12:28:11Z</time>
      </trkpt>
      <trkpt lat="46.01695" lon="4.60819">
        <ele>531</ele>
        <time>2012-06-02T12:28:22Z</time>
      </trkpt>
      <trkpt lat="46.01701" lon="4.60806">
        <ele>532</ele>
        <time>2012-06-02T12:28:32Z</time>
      </trkpt>
      <trkpt lat="46.01706" lon="4.60798">
        <ele>532</ele>
        <time>2012-06-02T12:28:38Z</time>
      </trkpt>
      <trkpt lat="46.01709" lon="4.60788">
        <ele>533</ele>
        <time>2012-06-02T12:28:44Z</time>
      </trkpt>
      <trkpt lat="46.01716" lon="4.60766">
        <ele>534</ele>
        <time>2012-06-02T12:28:59Z</time>
      </trkpt>
      <trkpt lat="46.01718" lon="4.6076">
        <ele>534</ele>
        <time>2012-06-02T12:29:04Z</time>
      </trkpt>
      <trkpt lat="46.0172" lon="4.60754">
        <ele>534</ele>
        <time>2012-06-02T12:29:10Z</time>
      </trkpt>
      <trkpt lat="46.01724" lon="4.60745">
        <ele>540</ele>
        <time>2012-06-02T12:29:18Z</time>
      </trkpt>
      <trkpt lat="46.01729" lon="4.60735">
        <ele>540</ele>
        <time>2012-06-02T12:29:27Z</time>
      </trkpt>
      <trkpt lat="46.01731" lon="4.60731">
        <ele>541</ele>
        <time>2012-06-02T12:29:31Z</time>
      </trkpt>
      <trkpt lat="46.01736" lon="4.6072">
        <ele>542</ele>
        <time>2012-06-02T12:29:41Z</time>
      </trkpt>
      <trkpt lat="46.01744" lon="4.60707">
        <ele>543</ele>
        <time>2012-06-02T12:29:52Z</time>
      </trkpt>
      <trkpt lat="46.01752" lon="4.60691">
        <ele>537</ele>
        <time>2012-06-02T12:30:04Z</time>
      </trkpt>
      <trkpt lat="46.01757" lon="4.60676">
        <ele>540</ele>
        <time>2012-06-02T12:30:15Z</time>
      </trkpt>
      <trkpt lat="46.01764" lon="4.6066">
        <ele>547</ele>
        <time>2012-06-02T12:30:27Z</time>
      </trkpt>
      <trkpt lat="46.01766" lon="4.60649">
        <ele>549</ele>
        <time>2012-06-02T12:30:33Z</time>
      </trkpt>
      <trkpt lat="46.0177" lon="4.60639">
        <ele>550</ele>
        <time>2012-06-02T12:30:40Z</time>
      </trkpt>
      <trkpt lat="46.01774" lon="4.6063">
        <ele>551</ele>
        <time>2012-06-02T12:30:46Z</time>
      </trkpt>
      <trkpt lat="46.01788" lon="4.60611">
        <ele>553</ele>
        <time>2012-06-02T12:30:59Z</time>
      </trkpt>
      <trkpt lat="46.01798" lon="4.606">
        <ele>554</ele>
        <time>2012-06-02T12:31:08Z</time>
      </trkpt>
      <trkpt lat="46.01811" lon="4.6059">
        <ele>554</ele>
        <time>2012-06-02T12:31:19Z</time>
      </trkpt>
      <trkpt lat="46.01824" lon="4.60586">
        <ele>556</ele>
        <time>2012-06-02T12:31:28Z</time>
      </trkpt>
      <trkpt lat="46.01839" lon="4.60583">
        <ele>560</ele>
        <time>2012-06-02T12:31:39Z</time>
      </trkpt>
      <trkpt lat="46.01848" lon="4.60581">
        <ele>563</ele>
        <time>2012-06-02T12:31:46Z</time>
      </trkpt>
      <trkpt lat="46.01854" lon="4.60573">
        <ele>565</ele>
        <time>2012-06-02T12:31:53Z</time>
      </trkpt>
      <trkpt lat="46.01855" lon="4.60571">
        <ele>565</ele>
        <time>2012-06-02T12:31:55Z</time>
      </trkpt>
      <trkpt lat="46.01869" lon="4.60566">
        <ele>566</ele>
        <time>2012-06-02T12:32:06Z</time>
      </trkpt>
      <trkpt lat="46.0187" lon="4.60565">
        <ele>566</ele>
        <time>2012-06-02T12:32:09Z</time>
      </trkpt>
      <trkpt lat="46.01871" lon="4.60568">
        <ele>566</ele>
        <time>2012-06-02T12:32:15Z</time>
      </trkpt>
      <trkpt lat="46.01873" lon="4.60569">
        <ele>566</ele>
        <time>2012-06-02T12:32:33Z</time>
      </trkpt>
      <trkpt lat="46.01874" lon="4.60568">
        <ele>566</ele>
        <time>2012-06-02T12:32:50Z</time>
      </trkpt>
      <trkpt lat="46.01874" lon="4.60568">
        <ele>566</ele>
        <time>2012-06-02T12:36:52Z</time>
      </trkpt>
      <trkpt lat="46.01888" lon="4.60559">
        <ele>566</ele>
        <time>2012-06-02T12:37:04Z</time>
      </trkpt>
      <trkpt lat="46.019" lon="4.60549">
        <ele>568</ele>
        <time>2012-06-02T12:37:16Z</time>
      </trkpt>
      <trkpt lat="46.01908" lon="4.60541">
        <ele>569</ele>
        <time>2012-06-02T12:37:26Z</time>
      </trkpt>
      <trkpt lat="46.01917" lon="4.60533">
        <ele>569</ele>
        <time>2012-06-02T12:37:35Z</time>
      </trkpt>
      <trkpt lat="46.0192" lon="4.6053">
        <ele>570</ele>
        <time>2012-06-02T12:37:39Z</time>
      </trkpt>
      <trkpt lat="46.01921" lon="4.60529">
        <ele>570</ele>
        <time>2012-06-02T12:37:41Z</time>
      </trkpt>
      <trkpt lat="46.01924" lon="4.60527">
        <ele>571</ele>
        <time>2012-06-02T12:37:45Z</time>
      </trkpt>
      <trkpt lat="46.01935" lon="4.60518">
        <ele>572</ele>
        <time>2012-06-02T12:37:57Z</time>
      </trkpt>
      <trkpt lat="46.0194" lon="4.60517">
        <ele>571</ele>
        <time>2012-06-02T12:38:01Z</time>
      </trkpt>
      <trkpt lat="46.01953" lon="4.60507">
        <ele>572</ele>
        <time>2012-06-02T12:38:13Z</time>
      </trkpt>
      <trkpt lat="46.01953" lon="4.60506">
        <ele>572</ele>
        <time>2012-06-02T12:38:14Z</time>
      </trkpt>
      <trkpt lat="46.01959" lon="4.60506">
        <ele>572</ele>
        <time>2012-06-02T12:38:19Z</time>
      </trkpt>
      <trkpt lat="46.01963" lon="4.60504">
        <ele>572</ele>
        <time>2012-06-02T12:38:23Z</time>
      </trkpt>
      <trkpt lat="46.01971" lon="4.60499">
        <ele>591</ele>
        <time>2012-06-02T12:38:34Z</time>
      </trkpt>
      <trkpt lat="46.01981" lon="4.60488">
        <ele>591</ele>
        <time>2012-06-02T12:38:43Z</time>
      </trkpt>
      <trkpt lat="46.01991" lon="4.60483">
        <ele>591</ele>
        <time>2012-06-02T12:38:52Z</time>
      </trkpt>
      <trkpt lat="46.01999" lon="4.60474">
        <ele>593</ele>
        <time>2012-06-02T12:39:02Z</time>
      </trkpt>
      <trkpt lat="46.02006" lon="4.60471">
        <ele>590</ele>
        <time>2012-06-02T12:39:11Z</time>
      </trkpt>
      <trkpt lat="46.02017" lon="4.60463">
        <ele>592</ele>
        <time>2012-06-02T12:39:21Z</time>
      </trkpt>
      <trkpt lat="46.02026" lon="4.60457">
        <ele>593</ele>
        <time>2012-06-02T12:39:32Z</time>
      </trkpt>
      <trkpt lat="46.02037" lon="4.60451">
        <ele>593</ele>
        <time>2012-06-02T12:39:40Z</time>
      </trkpt>
      <trkpt lat="46.02048" lon="4.60445">
        <ele>593</ele>
        <time>2012-06-02T12:39:51Z</time>
      </trkpt>
      <trkpt lat="46.02062" lon="4.60443">
        <ele>593</ele>
        <time>2012-06-02T12:40:02Z</time>
      </trkpt>
      <trkpt lat="46.02072" lon="4.60437">
        <ele>593</ele>
        <time>2012-06-02T12:40:12Z</time>
      </trkpt>
      <trkpt lat="46.02082" lon="4.60431">
        <ele>594</ele>
        <time>2012-06-02T12:40:23Z</time>
      </trkpt>
      <trkpt lat="46.02086" lon="4.6043">
        <ele>591</ele>
        <time>2012-06-02T12:40:26Z</time>
      </trkpt>
      <trkpt lat="46.02088" lon="4.6043">
        <ele>591</ele>
        <time>2012-06-02T12:40:29Z</time>
      </trkpt>
      <trkpt lat="46.02091" lon="4.6043">
        <ele>590</ele>
        <time>2012-06-02T12:40:32Z</time>
      </trkpt>
      <trkpt lat="46.02093" lon="4.60429">
        <ele>590</ele>
        <time>2012-06-02T12:40:35Z</time>
      </trkpt>
      <trkpt lat="46.02095" lon="4.60427">
        <ele>590</ele>
        <time>2012-06-02T12:40:38Z</time>
      </trkpt>
      <trkpt lat="46.02097" lon="4.60424">
        <ele>590</ele>
        <time>2012-06-02T12:40:41Z</time>
      </trkpt>
      <trkpt lat="46.02102" lon="4.60417">
        <ele>590</ele>
        <time>2012-06-02T12:40:49Z</time>
      </trkpt>
      <trkpt lat="46.02105" lon="4.60412">
        <ele>595</ele>
        <time>2012-06-02T12:41:00Z</time>
      </trkpt>
      <trkpt lat="46.02107" lon="4.6041">
        <ele>594</ele>
        <time>2012-06-02T12:41:04Z</time>
      </trkpt>
      <trkpt lat="46.02114" lon="4.604">
        <ele>594</ele>
        <time>2012-06-02T12:41:14Z</time>
      </trkpt>
      <trkpt lat="46.02114" lon="4.60399">
        <ele>594</ele>
        <time>2012-06-02T12:41:15Z</time>
      </trkpt>
      <trkpt lat="46.02115" lon="4.60396">
        <ele>594</ele>
        <time>2012-06-02T12:41:19Z</time>
      </trkpt>
      <trkpt lat="46.02112" lon="4.60384">
        <ele>594</ele>
        <time>2012-06-02T12:41:29Z</time>
      </trkpt>
      <trkpt lat="46.0211" lon="4.60375">
        <ele>595</ele>
        <time>2012-06-02T12:41:36Z</time>
      </trkpt>
      <trkpt lat="46.02106" lon="4.60363">
        <ele>596</ele>
        <time>2012-06-02T12:41:47Z</time>
      </trkpt>
      <trkpt lat="46.02106" lon="4.6034">
        <ele>598</ele>
        <time>2012-06-02T12:42:00Z</time>
      </trkpt>
      <trkpt lat="46.02105" lon="4.60328">
        <ele>599</ele>
        <time>2012-06-02T12:42:15Z</time>
      </trkpt>
      <trkpt lat="46.02104" lon="4.60315">
        <ele>598</ele>
        <time>2012-06-02T12:42:25Z</time>
      </trkpt>
      <trkpt lat="46.02102" lon="4.60311">
        <ele>598</ele>
        <time>2012-06-02T12:42:27Z</time>
      </trkpt>
      <trkpt lat="46.02094" lon="4.60289">
        <ele>598</ele>
        <time>2012-06-02T12:42:40Z</time>
      </trkpt>
      <trkpt lat="46.02088" lon="4.60271">
        <ele>600</ele>
        <time>2012-06-02T12:42:52Z</time>
      </trkpt>
      <trkpt lat="46.02086" lon="4.60263">
        <ele>602</ele>
        <time>2012-06-02T12:42:57Z</time>
      </trkpt>
      <trkpt lat="46.02078" lon="4.60247">
        <ele>610</ele>
        <time>2012-06-02T12:43:06Z</time>
      </trkpt>
      <trkpt lat="46.02074" lon="4.60238">
        <ele>613</ele>
        <time>2012-06-02T12:43:10Z</time>
      </trkpt>
      <trkpt lat="46.02071" lon="4.60228">
        <ele>615</ele>
        <time>2012-06-02T12:43:19Z</time>
      </trkpt>
      <trkpt lat="46.02062" lon="4.60204">
        <ele>616</ele>
        <time>2012-06-02T12:43:32Z</time>
      </trkpt>
      <trkpt lat="46.02053" lon="4.60186">
        <ele>617</ele>
        <time>2012-06-02T12:43:50Z</time>
      </trkpt>
      <trkpt lat="46.02046" lon="4.6016">
        <ele>617</ele>
        <time>2012-06-02T12:44:06Z</time>
      </trkpt>
      <trkpt lat="46.02034" lon="4.60124">
        <ele>620</ele>
        <time>2012-06-02T12:44:22Z</time>
      </trkpt>
      <trkpt lat="46.02028" lon="4.60101">
        <ele>621</ele>
        <time>2012-06-02T12:44:32Z</time>
      </trkpt>
      <trkpt lat="46.02028" lon="4.60077">
        <ele>624</ele>
        <time>2012-06-02T12:44:44Z</time>
      </trkpt>
      <trkpt lat="46.02029" lon="4.60076">
        <ele>624</ele>
        <time>2012-06-02T12:44:45Z</time>
      </trkpt>
      <trkpt lat="46.0203" lon="4.60068">
        <ele>624</ele>
        <time>2012-06-02T12:44:48Z</time>
      </trkpt>
      <trkpt lat="46.02034" lon="4.60043">
        <ele>624</ele>
        <time>2012-06-02T12:44:55Z</time>
      </trkpt>
      <trkpt lat="46.02036" lon="4.60034">
        <ele>625</ele>
        <time>2012-06-02T12:44:59Z</time>
      </trkpt>
      <trkpt lat="46.02038" lon="4.60027">
        <ele>625</ele>
        <time>2012-06-02T12:45:05Z</time>
      </trkpt>
      <trkpt lat="46.0204" lon="4.6002">
        <ele>625</ele>
        <time>2012-06-02T12:45:08Z</time>
      </trkpt>
      <trkpt lat="46.02044" lon="4.60014">
        <ele>625</ele>
        <time>2012-06-02T12:45:12Z</time>
      </trkpt>
      <trkpt lat="46.02058" lon="4.59991">
        <ele>627</ele>
        <time>2012-06-02T12:45:23Z</time>
      </trkpt>
      <trkpt lat="46.02063" lon="4.5997">
        <ele>628</ele>
        <time>2012-06-02T12:45:34Z</time>
      </trkpt>
      <trkpt lat="46.02063" lon="4.59965">
        <ele>628</ele>
        <time>2012-06-02T12:45:37Z</time>
      </trkpt>
      <trkpt lat="46.02066" lon="4.59942">
        <ele>629</ele>
        <time>2012-06-02T12:45:48Z</time>
      </trkpt>
      <trkpt lat="46.02068" lon="4.59932">
        <ele>628</ele>
        <time>2012-06-02T12:45:52Z</time>
      </trkpt>
      <trkpt lat="46.02067" lon="4.59925">
        <ele>628</ele>
        <time>2012-06-02T12:45:55Z</time>
      </trkpt>
      <trkpt lat="46.02071" lon="4.59902">
        <ele>630</ele>
        <time>2012-06-02T12:46:04Z</time>
      </trkpt>
      <trkpt lat="46.02077" lon="4.59885">
        <ele>631</ele>
        <time>2012-06-02T12:46:12Z</time>
      </trkpt>
      <trkpt lat="46.02075" lon="4.59855">
        <ele>631</ele>
        <time>2012-06-02T12:46:26Z</time>
      </trkpt>
      <trkpt lat="46.02073" lon="4.59843">
        <ele>630</ele>
        <time>2012-06-02T12:46:36Z</time>
      </trkpt>
      <trkpt lat="46.02067" lon="4.59827">
        <ele>630</ele>
        <time>2012-06-02T12:46:51Z</time>
      </trkpt>
      <trkpt lat="46.02058" lon="4.59809">
        <ele>632</ele>
        <time>2012-06-02T12:47:02Z</time>
      </trkpt>
      <trkpt lat="46.02055" lon="4.59793">
        <ele>633</ele>
        <time>2012-06-02T12:47:09Z</time>
      </trkpt>
      <trkpt lat="46.02052" lon="4.59785">
        <ele>633</ele>
        <time>2012-06-02T12:47:14Z</time>
      </trkpt>
      <trkpt lat="46.02049" lon="4.59774">
        <ele>633</ele>
        <time>2012-06-02T12:47:22Z</time>
      </trkpt>
      <trkpt lat="46.02038" lon="4.59739">
        <ele>632</ele>
        <time>2012-06-02T12:47:40Z</time>
      </trkpt>
      <trkpt lat="46.02037" lon="4.59713">
        <ele>632</ele>
        <time>2012-06-02T12:47:50Z</time>
      </trkpt>
      <trkpt lat="46.02037" lon="4.59705">
        <ele>632</ele>
        <time>2012-06-02T12:47:52Z</time>
      </trkpt>
      <trkpt lat="46.02036" lon="4.59676">
        <ele>632</ele>
        <time>2012-06-02T12:48:02Z</time>
      </trkpt>
      <trkpt lat="46.02037" lon="4.59674">
        <ele>631</ele>
        <time>2012-06-02T12:48:03Z</time>
      </trkpt>
      <trkpt lat="46.02032" lon="4.59643">
        <ele>631</ele>
        <time>2012-06-02T12:48:11Z</time>
      </trkpt>
      <trkpt lat="46.02032" lon="4.5963">
        <ele>631</ele>
        <time>2012-06-02T12:48:15Z</time>
      </trkpt>
      <trkpt lat="46.02043" lon="4.59609">
        <ele>630</ele>
        <time>2012-06-02T12:48:24Z</time>
      </trkpt>
      <trkpt lat="46.0205" lon="4.59589">
        <ele>628</ele>
        <time>2012-06-02T12:48:31Z</time>
      </trkpt>
      <trkpt lat="46.02054" lon="4.59583">
        <ele>630</ele>
        <time>2012-06-02T12:48:36Z</time>
      </trkpt>
      <trkpt lat="46.02058" lon="4.59554">
        <ele>632</ele>
        <time>2012-06-02T12:48:44Z</time>
      </trkpt>
      <trkpt lat="46.02058" lon="4.59551">
        <ele>632</ele>
        <time>2012-06-02T12:48:46Z</time>
      </trkpt>
      <trkpt lat="46.02068" lon="4.59519">
        <ele>632</ele>
        <time>2012-06-02T12:48:55Z</time>
      </trkpt>
      <trkpt lat="46.0208" lon="4.59503">
        <ele>630</ele>
        <time>2012-06-02T12:49:07Z</time>
      </trkpt>
      <trkpt lat="46.02081" lon="4.595">
        <ele>631</ele>
        <time>2012-06-02T12:49:08Z</time>
      </trkpt>
      <trkpt lat="46.02082" lon="4.59497">
        <ele>631</ele>
        <time>2012-06-02T12:49:10Z</time>
      </trkpt>
      <trkpt lat="46.02087" lon="4.59493">
        <ele>627</ele>
        <time>2012-06-02T12:49:15Z</time>
      </trkpt>
      <trkpt lat="46.02093" lon="4.59466">
        <ele>626</ele>
        <time>2012-06-02T12:49:23Z</time>
      </trkpt>
      <trkpt lat="46.02096" lon="4.5945">
        <ele>627</ele>
        <time>2012-06-02T12:49:27Z</time>
      </trkpt>
      <trkpt lat="46.02106" lon="4.59411">
        <ele>638</ele>
        <time>2012-06-02T12:49:39Z</time>
      </trkpt>
      <trkpt lat="46.02117" lon="4.59401">
        <ele>636</ele>
        <time>2012-06-02T12:49:45Z</time>
      </trkpt>
      <trkpt lat="46.02127" lon="4.59395">
        <ele>634</ele>
        <time>2012-06-02T12:49:51Z</time>
      </trkpt>
      <trkpt lat="46.02129" lon="4.59383">
        <ele>635</ele>
        <time>2012-06-02T12:49:56Z</time>
      </trkpt>
      <trkpt lat="46.02138" lon="4.59352">
        <ele>635</ele>
        <time>2012-06-02T12:50:05Z</time>
      </trkpt>
      <trkpt lat="46.02143" lon="4.59333">
        <ele>641</ele>
        <time>2012-06-02T12:50:13Z</time>
      </trkpt>
      <trkpt lat="46.02148" lon="4.59318">
        <ele>641</ele>
        <time>2012-06-02T12:50:18Z</time>
      </trkpt>
      <trkpt lat="46.02151" lon="4.593">
        <ele>643</ele>
        <time>2012-06-02T12:50:24Z</time>
      </trkpt>
      <trkpt lat="46.02163" lon="4.59265">
        <ele>642</ele>
        <time>2012-06-02T12:50:36Z</time>
      </trkpt>
      <trkpt lat="46.02168" lon="4.59241">
        <ele>635</ele>
        <time>2012-06-02T12:50:46Z</time>
      </trkpt>
      <trkpt lat="46.02174" lon="4.59206">
        <ele>635</ele>
        <time>2012-06-02T12:50:59Z</time>
      </trkpt>
      <trkpt lat="46.02184" lon="4.59192">
        <ele>636</ele>
        <time>2012-06-02T12:51:09Z</time>
      </trkpt>
      <trkpt lat="46.02186" lon="4.5919">
        <ele>637</ele>
        <time>2012-06-02T12:51:11Z</time>
      </trkpt>
      <trkpt lat="46.02196" lon="4.59188">
        <ele>635</ele>
        <time>2012-06-02T12:51:18Z</time>
      </trkpt>
      <trkpt lat="46.02216" lon="4.59172">
        <ele>634</ele>
        <time>2012-06-02T12:51:28Z</time>
      </trkpt>
      <trkpt lat="46.02222" lon="4.59167">
        <ele>633</ele>
        <time>2012-06-02T12:51:34Z</time>
      </trkpt>
      <trkpt lat="46.02228" lon="4.59161">
        <ele>639</ele>
        <time>2012-06-02T12:51:41Z</time>
      </trkpt>
      <trkpt lat="46.0223" lon="4.59157">
        <ele>639</ele>
        <time>2012-06-02T12:51:44Z</time>
      </trkpt>
      <trkpt lat="46.0223" lon="4.59153">
        <ele>640</ele>
        <time>2012-06-02T12:51:46Z</time>
      </trkpt>
      <trkpt lat="46.02237" lon="4.59144">
        <ele>640</ele>
        <time>2012-06-02T12:51:54Z</time>
      </trkpt>
      <trkpt lat="46.02248" lon="4.5914">
        <ele>640</ele>
        <time>2012-06-02T12:52:04Z</time>
      </trkpt>
      <trkpt lat="46.02251" lon="4.59127">
        <ele>638</ele>
        <time>2012-06-02T12:52:22Z</time>
      </trkpt>
      <trkpt lat="46.0225" lon="4.59125">
        <ele>643</ele>
        <time>2012-06-02T12:52:30Z</time>
      </trkpt>
      <trkpt lat="46.02262" lon="4.59119">
        <ele>639</ele>
        <time>2012-06-02T12:52:39Z</time>
      </trkpt>
      <trkpt lat="46.02272" lon="4.59102">
        <ele>640</ele>
        <time>2012-06-02T12:52:50Z</time>
      </trkpt>
      <trkpt lat="46.02275" lon="4.591">
        <ele>640</ele>
        <time>2012-06-02T12:52:53Z</time>
      </trkpt>
      <trkpt lat="46.0228" lon="4.59087">
        <ele>641</ele>
        <time>2012-06-02T12:53:02Z</time>
      </trkpt>
      <trkpt lat="46.02291" lon="4.59055">
        <ele>651</ele>
        <time>2012-06-02T12:53:18Z</time>
      </trkpt>
      <trkpt lat="46.02291" lon="4.5904">
        <ele>652</ele>
        <time>2012-06-02T12:53:28Z</time>
      </trkpt>
      <trkpt lat="46.02299" lon="4.59013">
        <ele>655</ele>
        <time>2012-06-02T12:53:42Z</time>
      </trkpt>
      <trkpt lat="46.02304" lon="4.58999">
        <ele>661</ele>
        <time>2012-06-02T12:53:53Z</time>
      </trkpt>
      <trkpt lat="46.02304" lon="4.59002">
        <ele>656</ele>
        <time>2012-06-02T12:54:05Z</time>
      </trkpt>
      <trkpt lat="46.02308" lon="4.58998">
        <ele>661</ele>
        <time>2012-06-02T12:54:49Z</time>
      </trkpt>
      <trkpt lat="46.02317" lon="4.58983">
        <ele>662</ele>
        <time>2012-06-02T12:58:02Z</time>
      </trkpt>
      <trkpt lat="46.02324" lon="4.58969">
        <ele>663</ele>
        <time>2012-06-02T12:58:10Z</time>
      </trkpt>
      <trkpt lat="46.02335" lon="4.58951">
        <ele>673</ele>
        <time>2012-06-02T12:58:21Z</time>
      </trkpt>
      <trkpt lat="46.02343" lon="4.58928">
        <ele>674</ele>
        <time>2012-06-02T12:58:32Z</time>
      </trkpt>
      <trkpt lat="46.02348" lon="4.58923">
        <ele>674</ele>
        <time>2012-06-02T12:58:38Z</time>
      </trkpt>
      <trkpt lat="46.0236" lon="4.58905">
        <ele>679</ele>
        <time>2012-06-02T12:58:49Z</time>
      </trkpt>
      <trkpt lat="46.0237" lon="4.58887">
        <ele>680</ele>
        <time>2012-06-02T12:58:58Z</time>
      </trkpt>
      <trkpt lat="46.02379" lon="4.58868">
        <ele>681</ele>
        <time>2012-06-02T12:59:08Z</time>
      </trkpt>
      <trkpt lat="46.02388" lon="4.58857">
        <ele>683</ele>
        <time>2012-06-02T12:59:17Z</time>
      </trkpt>
      <trkpt lat="46.02391" lon="4.58851">
        <ele>684</ele>
        <time>2012-06-02T12:59:21Z</time>
      </trkpt>
      <trkpt lat="46.02398" lon="4.58842">
        <ele>686</ele>
        <time>2012-06-02T12:59:31Z</time>
      </trkpt>
      <trkpt lat="46.02406" lon="4.58824">
        <ele>685</ele>
        <time>2012-06-02T12:59:40Z</time>
      </trkpt>
      <trkpt lat="46.02416" lon="4.58807">
        <ele>682</ele>
        <time>2012-06-02T12:59:49Z</time>
      </trkpt>
      <trkpt lat="46.02428" lon="4.58797">
        <ele>698</ele>
        <time>2012-06-02T13:00:01Z</time>
      </trkpt>
      <trkpt lat="46.02432" lon="4.58786">
        <ele>697</ele>
        <time>2012-06-02T13:00:06Z</time>
      </trkpt>
      <trkpt lat="46.02442" lon="4.5877">
        <ele>697</ele>
        <time>2012-06-02T13:00:17Z</time>
      </trkpt>
      <trkpt lat="46.02454" lon="4.58759">
        <ele>699</ele>
        <time>2012-06-02T13:00:26Z</time>
      </trkpt>
      <trkpt lat="46.02459" lon="4.58757">
        <ele>700</ele>
        <time>2012-06-02T13:00:28Z</time>
      </trkpt>
      <trkpt lat="46.02467" lon="4.58743">
        <ele>694</ele>
        <time>2012-06-02T13:00:36Z</time>
      </trkpt>
      <trkpt lat="46.0248" lon="4.58738">
        <ele>697</ele>
        <time>2012-06-02T13:00:46Z</time>
      </trkpt>
      <trkpt lat="46.0249" lon="4.58732">
        <ele>698</ele>
        <time>2012-06-02T13:00:54Z</time>
      </trkpt>
      <trkpt lat="46.02495" lon="4.58729">
        <ele>698</ele>
        <time>2012-06-02T13:00:57Z</time>
      </trkpt>
      <trkpt lat="46.02512" lon="4.58719">
        <ele>709</ele>
        <time>2012-06-02T13:01:09Z</time>
      </trkpt>
      <trkpt lat="46.02524" lon="4.58706">
        <ele>708</ele>
        <time>2012-06-02T13:01:20Z</time>
      </trkpt>
      <trkpt lat="46.02537" lon="4.58697">
        <ele>709</ele>
        <time>2012-06-02T13:01:30Z</time>
      </trkpt>
      <trkpt lat="46.02546" lon="4.58691">
        <ele>709</ele>
        <time>2012-06-02T13:01:40Z</time>
      </trkpt>
      <trkpt lat="46.02558" lon="4.58682">
        <ele>710</ele>
        <time>2012-06-02T13:01:49Z</time>
      </trkpt>
      <trkpt lat="46.02568" lon="4.58676">
        <ele>710</ele>
        <time>2012-06-02T13:01:56Z</time>
      </trkpt>
      <trkpt lat="46.0258" lon="4.58666">
        <ele>709</ele>
        <time>2012-06-02T13:02:06Z</time>
      </trkpt>
      <trkpt lat="46.02596" lon="4.58657">
        <ele>709</ele>
        <time>2012-06-02T13:02:16Z</time>
      </trkpt>
      <trkpt lat="46.02606" lon="4.58648">
        <ele>709</ele>
        <time>2012-06-02T13:02:25Z</time>
      </trkpt>
      <trkpt lat="46.02623" lon="4.58648">
        <ele>709</ele>
        <time>2012-06-02T13:02:37Z</time>
      </trkpt>
      <trkpt lat="46.02636" lon="4.58647">
        <ele>710</ele>
        <time>2012-06-02T13:02:48Z</time>
      </trkpt>
      <trkpt lat="46.02651" lon="4.58644">
        <ele>712</ele>
        <time>2012-06-02T13:02:59Z</time>
      </trkpt>
      <trkpt lat="46.02666" lon="4.58644">
        <ele>713</ele>
        <time>2012-06-02T13:03:09Z</time>
      </trkpt>
      <trkpt lat="46.02681" lon="4.58652">
        <ele>715</ele>
        <time>2012-06-02T13:03:20Z</time>
      </trkpt>
      <trkpt lat="46.02697" lon="4.58656">
        <ele>714</ele>
        <time>2012-06-02T13:03:34Z</time>
      </trkpt>
      <trkpt lat="46.02711" lon="4.58663">
        <ele>714</ele>
        <time>2012-06-02T13:03:45Z</time>
      </trkpt>
      <trkpt lat="46.02721" lon="4.58668">
        <ele>718</ele>
        <time>2012-06-02T13:03:52Z</time>
      </trkpt>
      <trkpt lat="46.02726" lon="4.58669">
        <ele>718</ele>
        <time>2012-06-02T13:03:57Z</time>
      </trkpt>
      <trkpt lat="46.02738" lon="4.5867">
        <ele>717</ele>
        <time>2012-06-02T13:04:08Z</time>
      </trkpt>
      <trkpt lat="46.02759" lon="4.58667">
        <ele>715</ele>
        <time>2012-06-02T13:04:20Z</time>
      </trkpt>
      <trkpt lat="46.02778" lon="4.58669">
        <ele>714</ele>
        <time>2012-06-02T13:04:33Z</time>
      </trkpt>
      <trkpt lat="46.02789" lon="4.58668">
        <ele>714</ele>
        <time>2012-06-02T13:04:43Z</time>
      </trkpt>
      <trkpt lat="46.0279" lon="4.58666">
        <ele>715</ele>
        <time>2012-06-02T13:05:02Z</time>
      </trkpt>
      <trkpt lat="46.02794" lon="4.58633">
        <ele>714</ele>
        <time>2012-06-02T13:08:43Z</time>
      </trkpt>
      <trkpt lat="46.02793" lon="4.58627">
        <ele>714</ele>
        <time>2012-06-02T13:09:31Z</time>
      </trkpt>
      <trkpt lat="46.02809" lon="4.58606">
        <ele>714</ele>
        <time>2012-06-02T13:09:38Z</time>
      </trkpt>
      <trkpt lat="46.0282" lon="4.58588">
        <ele>714</ele>
        <time>2012-06-02T13:09:42Z</time>
      </trkpt>
      <trkpt lat="46.02842" lon="4.58549">
        <ele>714</ele>
        <time>2012-06-02T13:09:49Z</time>
      </trkpt>
      <trkpt lat="46.02858" lon="4.58517">
        <ele>713</ele>
        <time>2012-06-02T13:09:54Z</time>
      </trkpt>
      <trkpt lat="46.02864" lon="4.58504">
        <ele>713</ele>
        <time>2012-06-02T13:09:56Z</time>
      </trkpt>
      <trkpt lat="46.02876" lon="4.58479">
        <ele>708</ele>
        <time>2012-06-02T13:09:59Z</time>
      </trkpt>
      <trkpt lat="46.02892" lon="4.58444">
        <ele>707</ele>
        <time>2012-06-02T13:10:03Z</time>
      </trkpt>
      <trkpt lat="46.02909" lon="4.58404">
        <ele>703</ele>
        <time>2012-06-02T13:10:07Z</time>
      </trkpt>
      <trkpt lat="46.02926" lon="4.58357">
        <ele>708</ele>
        <time>2012-06-02T13:10:11Z</time>
      </trkpt>
      <trkpt lat="46.02931" lon="4.58332">
        <ele>700</ele>
        <time>2012-06-02T13:10:13Z</time>
      </trkpt>
      <trkpt lat="46.02938" lon="4.58284">
        <ele>698</ele>
        <time>2012-06-02T13:10:17Z</time>
      </trkpt>
      <trkpt lat="46.02951" lon="4.58225">
        <ele>688</ele>
        <time>2012-06-02T13:10:22Z</time>
      </trkpt>
      <trkpt lat="46.0296" lon="4.58211">
        <ele>687</ele>
        <time>2012-06-02T13:10:28Z</time>
      </trkpt>
      <trkpt lat="46.0296" lon="4.58211">
        <ele>687</ele>
        <time>2012-06-02T13:10:29Z</time>
      </trkpt>
      <trkpt lat="46.03064" lon="4.58268">
        <ele>689</ele>
        <time>2012-06-02T13:10:35Z</time>
      </trkpt>
      <trkpt lat="46.03081" lon="4.58284">
        <ele>691</ele>
        <time>2012-06-02T13:10:37Z</time>
      </trkpt>
      <trkpt lat="46.03123" lon="4.58358">
        <ele>684</ele>
        <time>2012-06-02T13:10:44Z</time>
      </trkpt>
      <trkpt lat="46.03207" lon="4.58438">
        <ele>664</ele>
        <time>2012-06-02T13:10:52Z</time>
      </trkpt>
      <trkpt lat="46.0323" lon="4.58507">
        <ele>662</ele>
        <time>2012-06-02T13:10:57Z</time>
      </trkpt>
      <trkpt lat="46.03238" lon="4.58536">
        <ele>665</ele>
        <time>2012-06-02T13:10:59Z</time>
      </trkpt>
      <trkpt lat="46.03253" lon="4.58611">
        <ele>649</ele>
        <time>2012-06-02T13:11:05Z</time>
      </trkpt>
      <trkpt lat="46.03257" lon="4.58663">
        <ele>655</ele>
        <time>2012-06-02T13:11:09Z</time>
      </trkpt>
      <trkpt lat="46.03254" lon="4.58731">
        <ele>649</ele>
        <time>2012-06-02T13:11:15Z</time>
      </trkpt>
      <trkpt lat="46.03269" lon="4.58779">
        <ele>647</ele>
        <time>2012-06-02T13:11:20Z</time>
      </trkpt>
      <trkpt lat="46.03274" lon="4.58781">
        <ele>647</ele>
        <time>2012-06-02T13:11:27Z</time>
      </trkpt>
      <trkpt lat="46.03278" lon="4.58783">
        <ele>646</ele>
        <time>2012-06-02T13:11:56Z</time>
      </trkpt>
      <trkpt lat="46.03286" lon="4.58786">
        <ele>646</ele>
        <time>2012-06-02T13:12:02Z</time>
      </trkpt>
      <trkpt lat="46.03287" lon="4.58787">
        <ele>646</ele>
        <time>2012-06-02T13:12:06Z</time>
      </trkpt>
      <trkpt lat="46.03299" lon="4.58788">
        <ele>645</ele>
        <time>2012-06-02T13:12:16Z</time>
      </trkpt>
      <trkpt lat="46.03311" lon="4.5879">
        <ele>645</ele>
        <time>2012-06-02T13:12:26Z</time>
      </trkpt>
      <trkpt lat="46.03323" lon="4.58792">
        <ele>645</ele>
        <time>2012-06-02T13:12:38Z</time>
      </trkpt>
      <trkpt lat="46.03333" lon="4.58793">
        <ele>645</ele>
        <time>2012-06-02T13:12:47Z</time>
      </trkpt>
      <trkpt lat="46.03347" lon="4.58795">
        <ele>642</ele>
        <time>2012-06-02T13:12:57Z</time>
      </trkpt>
      <trkpt lat="46.03363" lon="4.58797">
        <ele>641</ele>
        <time>2012-06-02T13:13:08Z</time>
      </trkpt>
      <trkpt lat="46.03377" lon="4.58799">
        <ele>641</ele>
        <time>2012-06-02T13:13:18Z</time>
      </trkpt>
      <trkpt lat="46.03388" lon="4.588">
        <ele>641</ele>
        <time>2012-06-02T13:13:25Z</time>
      </trkpt>
      <trkpt lat="46.03391" lon="4.58801">
        <ele>641</ele>
        <time>2012-06-02T13:13:28Z</time>
      </trkpt>
      <trkpt lat="46.034" lon="4.58885">
        <ele>656</ele>
        <time>2012-06-02T13:13:38Z</time>
      </trkpt>
      <trkpt lat="46.03417" lon="4.58894">
        <ele>658</ele>
        <time>2012-06-02T13:13:47Z</time>
      </trkpt>
      <trkpt lat="46.03421" lon="4.58898">
        <ele>659</ele>
        <time>2012-06-02T13:13:50Z</time>
      </trkpt>
      <trkpt lat="46.03435" lon="4.58899">
        <ele>659</ele>
        <time>2012-06-02T13:14:00Z</time>
      </trkpt>
      <trkpt lat="46.03452" lon="4.58903">
        <ele>658</ele>
        <time>2012-06-02T13:14:10Z</time>
      </trkpt>
      <trkpt lat="46.03473" lon="4.58906">
        <ele>659</ele>
        <time>2012-06-02T13:14:22Z</time>
      </trkpt>
      <trkpt lat="46.03477" lon="4.58906">
        <ele>659</ele>
        <time>2012-06-02T13:14:31Z</time>
      </trkpt>
      <trkpt lat="46.03478" lon="4.58906">
        <ele>659</ele>
        <time>2012-06-02T13:15:10Z</time>
      </trkpt>
      <trkpt lat="46.03485" lon="4.58906">
        <ele>659</ele>
        <time>2012-06-02T13:15:14Z</time>
      </trkpt>
      <trkpt lat="46.03515" lon="4.58913">
        <ele>661</ele>
        <time>2012-06-02T13:15:24Z</time>
      </trkpt>
      <trkpt lat="46.03517" lon="4.58914">
        <ele>661</ele>
        <time>2012-06-02T13:15:25Z</time>
      </trkpt>
      <trkpt lat="46.03525" lon="4.58912">
        <ele>660</ele>
        <time>2012-06-02T13:15:35Z</time>
      </trkpt>
      <trkpt lat="46.03538" lon="4.5891">
        <ele>660</ele>
        <time>2012-06-02T13:16:12Z</time>
      </trkpt>
      <trkpt lat="46.03551" lon="4.58898">
        <ele>660</ele>
        <time>2012-06-02T13:16:19Z</time>
      </trkpt>
      <trkpt lat="46.03574" lon="4.589">
        <ele>661</ele>
        <time>2012-06-02T13:16:27Z</time>
      </trkpt>
      <trkpt lat="46.03577" lon="4.58897">
        <ele>661</ele>
        <time>2012-06-02T13:16:28Z</time>
      </trkpt>
      <trkpt lat="46.03583" lon="4.58893">
        <ele>661</ele>
        <time>2012-06-02T13:16:30Z</time>
      </trkpt>
      <trkpt lat="46.03613" lon="4.58881">
        <ele>660</ele>
        <time>2012-06-02T13:16:39Z</time>
      </trkpt>
      <trkpt lat="46.03628" lon="4.58869">
        <ele>660</ele>
        <time>2012-06-02T13:16:47Z</time>
      </trkpt>
      <trkpt lat="46.0364" lon="4.5886">
        <ele>660</ele>
        <time>2012-06-02T13:16:58Z</time>
      </trkpt>
      <trkpt lat="46.03654" lon="4.58843">
        <ele>661</ele>
        <time>2012-06-02T13:19:14Z</time>
      </trkpt>
      <trkpt lat="46.03662" lon="4.58837">
        <ele>662</ele>
        <time>2012-06-02T13:19:25Z</time>
      </trkpt>
      <trkpt lat="46.03663" lon="4.58837">
        <ele>662</ele>
        <time>2012-06-02T13:19:31Z</time>
      </trkpt>
      <trkpt lat="46.03671" lon="4.5882">
        <ele>658</ele>
        <time>2012-06-02T13:19:36Z</time>
      </trkpt>
      <trkpt lat="46.03682" lon="4.58811">
        <ele>656</ele>
        <time>2012-06-02T13:19:40Z</time>
      </trkpt>
      <trkpt lat="46.03697" lon="4.58791">
        <ele>654</ele>
        <time>2012-06-02T13:19:48Z</time>
      </trkpt>
      <trkpt lat="46.03699" lon="4.58791">
        <ele>654</ele>
        <time>2012-06-02T13:19:49Z</time>
      </trkpt>
      <trkpt lat="46.03718" lon="4.58773">
        <ele>653</ele>
        <time>2012-06-02T13:19:56Z</time>
      </trkpt>
      <trkpt lat="46.03726" lon="4.58769">
        <ele>652</ele>
        <time>2012-06-02T13:20:06Z</time>
      </trkpt>
      <trkpt lat="46.03728" lon="4.58768">
        <ele>652</ele>
        <time>2012-06-02T13:20:08Z</time>
      </trkpt>
      <trkpt lat="46.03737" lon="4.58757">
        <ele>651</ele>
        <time>2012-06-02T13:20:19Z</time>
      </trkpt>
      <trkpt lat="46.03737" lon="4.58756">
        <ele>651</ele>
        <time>2012-06-02T13:20:20Z</time>
      </trkpt>
      <trkpt lat="46.03749" lon="4.58752">
        <ele>650</ele>
        <time>2012-06-02T13:20:27Z</time>
      </trkpt>
      <trkpt lat="46.0376" lon="4.58734">
        <ele>642</ele>
        <time>2012-06-02T13:20:37Z</time>
      </trkpt>
      <trkpt lat="46.03761" lon="4.58733">
        <ele>642</ele>
        <time>2012-06-02T13:20:39Z</time>
      </trkpt>
      <trkpt lat="46.0378" lon="4.58718">
        <ele>637</ele>
        <time>2012-06-02T13:20:50Z</time>
      </trkpt>
      <trkpt lat="46.03789" lon="4.5871">
        <ele>635</ele>
        <time>2012-06-02T13:20:59Z</time>
      </trkpt>
      <trkpt lat="46.03792" lon="4.5871">
        <ele>635</ele>
        <time>2012-06-02T13:21:11Z</time>
      </trkpt>
      <trkpt lat="46.03806" lon="4.58698">
        <ele>633</ele>
        <time>2012-06-02T13:21:23Z</time>
      </trkpt>
      <trkpt lat="46.03818" lon="4.58687">
        <ele>630</ele>
        <time>2012-06-02T13:21:29Z</time>
      </trkpt>
      <trkpt lat="46.03833" lon="4.58682">
        <ele>628</ele>
        <time>2012-06-02T13:21:38Z</time>
      </trkpt>
      <trkpt lat="46.03836" lon="4.58681">
        <ele>622</ele>
        <time>2012-06-02T13:21:58Z</time>
      </trkpt>
      <trkpt lat="46.03838" lon="4.58706">
        <ele>623</ele>
        <time>2012-06-02T13:22:04Z</time>
      </trkpt>
      <trkpt lat="46.03866" lon="4.58618">
        <ele>601</ele>
        <time>2012-06-02T13:22:12Z</time>
      </trkpt>
      <trkpt lat="46.03868" lon="4.58611">
        <ele>600</ele>
        <time>2012-06-02T13:22:14Z</time>
      </trkpt>
      <trkpt lat="46.03883" lon="4.58601">
        <ele>597</ele>
        <time>2012-06-02T13:22:22Z</time>
      </trkpt>
      <trkpt lat="46.0389" lon="4.58593">
        <ele>596</ele>
        <time>2012-06-02T13:22:34Z</time>
      </trkpt>
      <trkpt lat="46.03896" lon="4.58582">
        <ele>583</ele>
        <time>2012-06-02T13:22:53Z</time>
      </trkpt>
      <trkpt lat="46.039" lon="4.58574">
        <ele>583</ele>
        <time>2012-06-02T13:22:58Z</time>
      </trkpt>
      <trkpt lat="46.03908" lon="4.5855">
        <ele>580</ele>
        <time>2012-06-02T13:23:06Z</time>
      </trkpt>
      <trkpt lat="46.03902" lon="4.58519">
        <ele>576</ele>
        <time>2012-06-02T13:23:15Z</time>
      </trkpt>
      <trkpt lat="46.03899" lon="4.5851">
        <ele>575</ele>
        <time>2012-06-02T13:23:26Z</time>
      </trkpt>
      <trkpt lat="46.03898" lon="4.5851">
        <ele>575</ele>
        <time>2012-06-02T13:23:44Z</time>
      </trkpt>
      <trkpt lat="46.03901" lon="4.58493">
        <ele>563</ele>
        <time>2012-06-02T13:24:16Z</time>
      </trkpt>
      <trkpt lat="46.03904" lon="4.58483">
        <ele>562</ele>
        <time>2012-06-02T13:24:23Z</time>
      </trkpt>
      <trkpt lat="46.03913" lon="4.58464">
        <ele>558</ele>
        <time>2012-06-02T13:24:34Z</time>
      </trkpt>
      <trkpt lat="46.03921" lon="4.58452">
        <ele>553</ele>
        <time>2012-06-02T13:24:40Z</time>
      </trkpt>
      <trkpt lat="46.03924" lon="4.58436">
        <ele>550</ele>
        <time>2012-06-02T13:24:51Z</time>
      </trkpt>
      <trkpt lat="46.03926" lon="4.58432">
        <ele>550</ele>
        <time>2012-06-02T13:25:11Z</time>
      </trkpt>
      <trkpt lat="46.03926" lon="4.58428">
        <ele>549</ele>
        <time>2012-06-02T13:25:36Z</time>
      </trkpt>
      <trkpt lat="46.03925" lon="4.58414">
        <ele>543</ele>
        <time>2012-06-02T13:25:40Z</time>
      </trkpt>
      <trkpt lat="46.03923" lon="4.584">
        <ele>540</ele>
        <time>2012-06-02T13:25:44Z</time>
      </trkpt>
      <trkpt lat="46.03921" lon="4.58369">
        <ele>534</ele>
        <time>2012-06-02T13:25:54Z</time>
      </trkpt>
      <trkpt lat="46.03921" lon="4.58346">
        <ele>529</ele>
        <time>2012-06-02T13:26:02Z</time>
      </trkpt>
      <trkpt lat="46.03921" lon="4.58343">
        <ele>529</ele>
        <time>2012-06-02T13:26:03Z</time>
      </trkpt>
      <trkpt lat="46.03921" lon="4.58329">
        <ele>523</ele>
        <time>2012-06-02T13:26:08Z</time>
      </trkpt>
      <trkpt lat="46.03914" lon="4.58316">
        <ele>515</ele>
        <time>2012-06-02T13:26:18Z</time>
      </trkpt>
      <trkpt lat="46.03914" lon="4.58316">
        <ele>515</ele>
        <time>2012-06-02T13:26:38Z</time>
      </trkpt>
      <trkpt lat="46.03911" lon="4.5831">
        <ele>513</ele>
        <time>2012-06-02T13:27:43Z</time>
      </trkpt>
      <trkpt lat="46.03907" lon="4.58304">
        <ele>511</ele>
        <time>2012-06-02T13:27:52Z</time>
      </trkpt>
      <trkpt lat="46.03901" lon="4.58315">
        <ele>513</ele>
        <time>2012-06-02T13:29:09Z</time>
      </trkpt>
      <trkpt lat="46.03895" lon="4.58321">
        <ele>513</ele>
        <time>2012-06-02T13:32:41Z</time>
      </trkpt>
      <trkpt lat="46.03883" lon="4.58328">
        <ele>511</ele>
        <time>2012-06-02T13:32:48Z</time>
      </trkpt>
      <trkpt lat="46.03868" lon="4.58335">
        <ele>525</ele>
        <time>2012-06-02T13:32:52Z</time>
      </trkpt>
      <trkpt lat="46.03854" lon="4.58308">
        <ele>507</ele>
        <time>2012-06-02T13:32:54Z</time>
      </trkpt>
      <trkpt lat="46.03807" lon="4.5831">
        <ele>502</ele>
        <time>2012-06-02T13:33:00Z</time>
      </trkpt>
      <trkpt lat="46.03801" lon="4.58308">
        <ele>502</ele>
        <time>2012-06-02T13:33:01Z</time>
      </trkpt>
      <trkpt lat="46.03785" lon="4.58303">
        <ele>501</ele>
        <time>2012-06-02T13:33:03Z</time>
      </trkpt>
      <trkpt lat="46.03753" lon="4.58298">
        <ele>501</ele>
        <time>2012-06-02T13:33:08Z</time>
      </trkpt>
      <trkpt lat="46.03732" lon="4.58296">
        <ele>499</ele>
        <time>2012-06-02T13:33:16Z</time>
      </trkpt>
      <trkpt lat="46.03727" lon="4.58295">
        <ele>499</ele>
        <time>2012-06-02T13:33:25Z</time>
      </trkpt>
      <trkpt lat="46.03706" lon="4.58295">
        <ele>498</ele>
        <time>2012-06-02T13:33:38Z</time>
      </trkpt>
      <trkpt lat="46.037" lon="4.58295">
        <ele>498</ele>
        <time>2012-06-02T13:33:46Z</time>
      </trkpt>
      <trkpt lat="46.03677" lon="4.58298">
        <ele>498</ele>
        <time>2012-06-02T13:33:56Z</time>
      </trkpt>
      <trkpt lat="46.03655" lon="4.58313">
        <ele>500</ele>
        <time>2012-06-02T13:34:06Z</time>
      </trkpt>
      <trkpt lat="46.03646" lon="4.58332">
        <ele>501</ele>
        <time>2012-06-02T13:34:17Z</time>
      </trkpt>
      <trkpt lat="46.03639" lon="4.58344">
        <ele>514</ele>
        <time>2012-06-02T13:34:24Z</time>
      </trkpt>
      <trkpt lat="46.03638" lon="4.58346">
        <ele>514</ele>
        <time>2012-06-02T13:34:28Z</time>
      </trkpt>
      <trkpt lat="46.03624" lon="4.58368">
        <ele>517</ele>
        <time>2012-06-02T13:34:39Z</time>
      </trkpt>
      <trkpt lat="46.03614" lon="4.58381">
        <ele>518</ele>
        <time>2012-06-02T13:34:46Z</time>
      </trkpt>
      <trkpt lat="46.03599" lon="4.58396">
        <ele>520</ele>
        <time>2012-06-02T13:34:56Z</time>
      </trkpt>
      <trkpt lat="46.03583" lon="4.58409">
        <ele>522</ele>
        <time>2012-06-02T13:35:07Z</time>
      </trkpt>
      <trkpt lat="46.03578" lon="4.58411">
        <ele>522</ele>
        <time>2012-06-02T13:35:12Z</time>
      </trkpt>
      <trkpt lat="46.0357" lon="4.58415">
        <ele>521</ele>
        <time>2012-06-02T13:35:23Z</time>
      </trkpt>
      <trkpt lat="46.0357" lon="4.58415">
        <ele>521</ele>
        <time>2012-06-02T13:35:35Z</time>
      </trkpt>
      <trkpt lat="46.03527" lon="4.58421">
        <ele>533</ele>
        <time>2012-06-02T13:35:47Z</time>
      </trkpt>
      <trkpt lat="46.03527" lon="4.58421">
        <ele>533</ele>
        <time>2012-06-02T13:35:58Z</time>
      </trkpt>
      <trkpt lat="46.03506" lon="4.5842">
        <ele>528</ele>
        <time>2012-06-02T13:36:07Z</time>
      </trkpt>
      <trkpt lat="46.03496" lon="4.58418">
        <ele>529</ele>
        <time>2012-06-02T13:36:16Z</time>
      </trkpt>
      <trkpt lat="46.03481" lon="4.58413">
        <ele>535</ele>
        <time>2012-06-02T13:36:28Z</time>
      </trkpt>
      <trkpt lat="46.03479" lon="4.58412">
        <ele>536</ele>
        <time>2012-06-02T13:36:33Z</time>
      </trkpt>
      <trkpt lat="46.03479" lon="4.58412">
        <ele>536</ele>
        <time>2012-06-02T13:36:44Z</time>
      </trkpt>
      <trkpt lat="46.03479" lon="4.58412">
        <ele>536</ele>
        <time>2012-06-02T13:37:02Z</time>
      </trkpt>
      <trkpt lat="46.03479" lon="4.58412">
        <ele>536</ele>
        <time>2012-06-02T13:37:16Z</time>
      </trkpt>
      <trkpt lat="46.03479" lon="4.58412">
        <ele>536</ele>
        <time>2012-06-02T13:37:36Z</time>
      </trkpt>
      <trkpt lat="46.03479" lon="4.58412">
        <ele>536</ele>
        <time>2012-06-02T13:37:42Z</time>
      </trkpt>
      <trkpt lat="46.03441" lon="4.58356">
        <ele>547</ele>
        <time>2012-06-02T13:37:59Z</time>
      </trkpt>
      <trkpt lat="46.03441" lon="4.58356">
        <ele>547</ele>
        <time>2012-06-02T13:38:16Z</time>
      </trkpt>
      <trkpt lat="46.03441" lon="4.58356">
        <ele>547</ele>
        <time>2012-06-02T13:38:34Z</time>
      </trkpt>
      <trkpt lat="46.03441" lon="4.58356">
        <ele>547</ele>
        <time>2012-06-02T13:38:47Z</time>
      </trkpt>
      <trkpt lat="46.03441" lon="4.58356">
        <ele>547</ele>
        <time>2012-06-02T13:38:58Z</time>
      </trkpt>
      <trkpt lat="46.03441" lon="4.58356">
        <ele>547</ele>
        <time>2012-06-02T13:41:53Z</time>
      </trkpt>
      <trkpt lat="46.03404" lon="4.58262">
        <ele>556</ele>
        <time>2012-06-02T13:42:01Z</time>
      </trkpt>
      <trkpt lat="46.03378" lon="4.58256">
        <ele>563</ele>
        <time>2012-06-02T13:42:15Z</time>
      </trkpt>
      <trkpt lat="46.03361" lon="4.58246">
        <ele>556</ele>
        <time>2012-06-02T13:42:26Z</time>
      </trkpt>
      <trkpt lat="46.03344" lon="4.58238">
        <ele>561</ele>
        <time>2012-06-02T13:42:35Z</time>
      </trkpt>
      <trkpt lat="46.03324" lon="4.58233">
        <ele>578</ele>
        <time>2012-06-02T13:42:46Z</time>
      </trkpt>
      <trkpt lat="46.03317" lon="4.58227">
        <ele>580</ele>
        <time>2012-06-02T13:42:50Z</time>
      </trkpt>
      <trkpt lat="46.0331" lon="4.58214">
        <ele>582</ele>
        <time>2012-06-02T13:43:00Z</time>
      </trkpt>
      <trkpt lat="46.03295" lon="4.58201">
        <ele>584</ele>
        <time>2012-06-02T13:43:14Z</time>
      </trkpt>
      <trkpt lat="46.03294" lon="4.58196">
        <ele>584</ele>
        <time>2012-06-02T13:43:16Z</time>
      </trkpt>
      <trkpt lat="46.03289" lon="4.58163">
        <ele>581</ele>
        <time>2012-06-02T13:43:33Z</time>
      </trkpt>
      <trkpt lat="46.03282" lon="4.5813">
        <ele>582</ele>
        <time>2012-06-02T13:43:50Z</time>
      </trkpt>
      <trkpt lat="46.03283" lon="4.5808">
        <ele>579</ele>
        <time>2012-06-02T13:44:10Z</time>
      </trkpt>
      <trkpt lat="46.03292" lon="4.58055">
        <ele>576</ele>
        <time>2012-06-02T13:44:22Z</time>
      </trkpt>
      <trkpt lat="46.03294" lon="4.58048">
        <ele>576</ele>
        <time>2012-06-02T13:44:26Z</time>
      </trkpt>
      <trkpt lat="46.03293" lon="4.58039">
        <ele>576</ele>
        <time>2012-06-02T13:44:30Z</time>
      </trkpt>
      <trkpt lat="46.03281" lon="4.58023">
        <ele>576</ele>
        <time>2012-06-02T13:44:41Z</time>
      </trkpt>
      <trkpt lat="46.0328" lon="4.58022">
        <ele>576</ele>
        <time>2012-06-02T13:44:51Z</time>
      </trkpt>
      <trkpt lat="46.03277" lon="4.58022">
        <ele>576</ele>
        <time>2012-06-02T13:46:09Z</time>
      </trkpt>
      <trkpt lat="46.03266" lon="4.58022">
        <ele>576</ele>
        <time>2012-06-02T13:49:05Z</time>
      </trkpt>
      <trkpt lat="46.03252" lon="4.58024">
        <ele>577</ele>
        <time>2012-06-02T13:49:19Z</time>
      </trkpt>
      <trkpt lat="46.03242" lon="4.58028">
        <ele>588</ele>
        <time>2012-06-02T13:49:31Z</time>
      </trkpt>
      <trkpt lat="46.03228" lon="4.58034">
        <ele>590</ele>
        <time>2012-06-02T13:49:43Z</time>
      </trkpt>
      <trkpt lat="46.0321" lon="4.58039">
        <ele>593</ele>
        <time>2012-06-02T13:49:58Z</time>
      </trkpt>
      <trkpt lat="46.03197" lon="4.58039">
        <ele>594</ele>
        <time>2012-06-02T13:50:07Z</time>
      </trkpt>
      <trkpt lat="46.03185" lon="4.58036">
        <ele>595</ele>
        <time>2012-06-02T13:50:18Z</time>
      </trkpt>
      <trkpt lat="46.0317" lon="4.58033">
        <ele>595</ele>
        <time>2012-06-02T13:50:29Z</time>
      </trkpt>
      <trkpt lat="46.03166" lon="4.58032">
        <ele>607</ele>
        <time>2012-06-02T13:50:32Z</time>
      </trkpt>
      <trkpt lat="46.03152" lon="4.58031">
        <ele>608</ele>
        <time>2012-06-02T13:50:41Z</time>
      </trkpt>
      <trkpt lat="46.03142" lon="4.58027">
        <ele>608</ele>
        <time>2012-06-02T13:50:54Z</time>
      </trkpt>
      <trkpt lat="46.03135" lon="4.58026">
        <ele>610</ele>
        <time>2012-06-02T13:51:04Z</time>
      </trkpt>
      <trkpt lat="46.03118" lon="4.5802">
        <ele>611</ele>
        <time>2012-06-02T13:51:14Z</time>
      </trkpt>
      <trkpt lat="46.03111" lon="4.58011">
        <ele>611</ele>
        <time>2012-06-02T13:51:20Z</time>
      </trkpt>
      <trkpt lat="46.03106" lon="4.58004">
        <ele>611</ele>
        <time>2012-06-02T13:51:25Z</time>
      </trkpt>
      <trkpt lat="46.03092" lon="4.5799">
        <ele>603</ele>
        <time>2012-06-02T13:51:34Z</time>
      </trkpt>
      <trkpt lat="46.03079" lon="4.57979">
        <ele>615</ele>
        <time>2012-06-02T13:51:45Z</time>
      </trkpt>
      <trkpt lat="46.03071" lon="4.57964">
        <ele>616</ele>
        <time>2012-06-02T13:51:53Z</time>
      </trkpt>
      <trkpt lat="46.03069" lon="4.57959">
        <ele>615</ele>
        <time>2012-06-02T13:51:56Z</time>
      </trkpt>
      <trkpt lat="46.03054" lon="4.57928">
        <ele>614</ele>
        <time>2012-06-02T13:52:08Z</time>
      </trkpt>
      <trkpt lat="46.0305" lon="4.57922">
        <ele>615</ele>
        <time>2012-06-02T13:52:11Z</time>
      </trkpt>
      <trkpt lat="46.03046" lon="4.57915">
        <ele>606</ele>
        <time>2012-06-02T13:52:15Z</time>
      </trkpt>
      <trkpt lat="46.03036" lon="4.57904">
        <ele>608</ele>
        <time>2012-06-02T13:52:21Z</time>
      </trkpt>
      <trkpt lat="46.03032" lon="4.57901">
        <ele>609</ele>
        <time>2012-06-02T13:52:25Z</time>
      </trkpt>
      <trkpt lat="46.03022" lon="4.57876">
        <ele>607</ele>
        <time>2012-06-02T13:52:34Z</time>
      </trkpt>
      <trkpt lat="46.0302" lon="4.57862">
        <ele>605</ele>
        <time>2012-06-02T13:52:39Z</time>
      </trkpt>
      <trkpt lat="46.03015" lon="4.57852">
        <ele>605</ele>
        <time>2012-06-02T13:52:43Z</time>
      </trkpt>
      <trkpt lat="46.03005" lon="4.57836">
        <ele>604</ele>
        <time>2012-06-02T13:52:54Z</time>
      </trkpt>
      <trkpt lat="46.03004" lon="4.57834">
        <ele>604</ele>
        <time>2012-06-02T13:54:15Z</time>
      </trkpt>
      <trkpt lat="46.02998" lon="4.57824">
        <ele>604</ele>
        <time>2012-06-02T13:54:21Z</time>
      </trkpt>
      <trkpt lat="46.02981" lon="4.5782">
        <ele>605</ele>
        <time>2012-06-02T13:54:34Z</time>
      </trkpt>
      <trkpt lat="46.02965" lon="4.5781">
        <ele>606</ele>
        <time>2012-06-02T13:54:46Z</time>
      </trkpt>
      <trkpt lat="46.0295" lon="4.57798">
        <ele>606</ele>
        <time>2012-06-02T13:54:57Z</time>
      </trkpt>
      <trkpt lat="46.02929" lon="4.57786">
        <ele>606</ele>
        <time>2012-06-02T13:55:07Z</time>
      </trkpt>
      <trkpt lat="46.02913" lon="4.57775">
        <ele>613</ele>
        <time>2012-06-02T13:55:16Z</time>
      </trkpt>
      <trkpt lat="46.02899" lon="4.57757">
        <ele>610</ele>
        <time>2012-06-02T13:55:23Z</time>
      </trkpt>
      <trkpt lat="46.02858" lon="4.5773">
        <ele>599</ele>
        <time>2012-06-02T13:55:31Z</time>
      </trkpt>
      <trkpt lat="46.02838" lon="4.5771">
        <ele>596</ele>
        <time>2012-06-02T13:55:35Z</time>
      </trkpt>
      <trkpt lat="46.02827" lon="4.57705">
        <ele>601</ele>
        <time>2012-06-02T13:55:37Z</time>
      </trkpt>
      <trkpt lat="46.02811" lon="4.57698">
        <ele>600</ele>
        <time>2012-06-02T13:55:40Z</time>
      </trkpt>
      <trkpt lat="46.02792" lon="4.5769">
        <ele>600</ele>
        <time>2012-06-02T13:55:44Z</time>
      </trkpt>
      <trkpt lat="46.02772" lon="4.5769">
        <ele>601</ele>
        <time>2012-06-02T13:55:49Z</time>
      </trkpt>
      <trkpt lat="46.02728" lon="4.5769">
        <ele>599</ele>
        <time>2012-06-02T13:56:01Z</time>
      </trkpt>
      <trkpt lat="46.02724" lon="4.5769">
        <ele>599</ele>
        <time>2012-06-02T13:56:02Z</time>
      </trkpt>
      <trkpt lat="46.02708" lon="4.57692">
        <ele>599</ele>
        <time>2012-06-02T13:56:06Z</time>
      </trkpt>
      <trkpt lat="46.02692" lon="4.57695">
        <ele>599</ele>
        <time>2012-06-02T13:56:10Z</time>
      </trkpt>
      <trkpt lat="46.02687" lon="4.57696">
        <ele>598</ele>
        <time>2012-06-02T13:56:15Z</time>
      </trkpt>
      <trkpt lat="46.02687" lon="4.57661">
        <ele>596</ele>
        <time>2012-06-02T13:56:24Z</time>
      </trkpt>
      <trkpt lat="46.02694" lon="4.57619">
        <ele>596</ele>
        <time>2012-06-02T13:56:32Z</time>
      </trkpt>
      <trkpt lat="46.02698" lon="4.57567">
        <ele>594</ele>
        <time>2012-06-02T13:56:40Z</time>
      </trkpt>
      <trkpt lat="46.02693" lon="4.57473">
        <ele>593</ele>
        <time>2012-06-02T13:56:54Z</time>
      </trkpt>
      <trkpt lat="46.02687" lon="4.57402">
        <ele>597</ele>
        <time>2012-06-02T13:57:07Z</time>
      </trkpt>
      <trkpt lat="46.02672" lon="4.57365">
        <ele>600</ele>
        <time>2012-06-02T13:57:17Z</time>
      </trkpt>
      <trkpt lat="46.02643" lon="4.57328">
        <ele>610</ele>
        <time>2012-06-02T13:57:30Z</time>
      </trkpt>
      <trkpt lat="46.02621" lon="4.57301">
        <ele>613</ele>
        <time>2012-06-02T13:57:41Z</time>
      </trkpt>
      <trkpt lat="46.02601" lon="4.57297">
        <ele>613</ele>
        <time>2012-06-02T13:57:51Z</time>
      </trkpt>
      <trkpt lat="46.0258" lon="4.57308">
        <ele>613</ele>
        <time>2012-06-02T13:58:01Z</time>
      </trkpt>
      <trkpt lat="46.02562" lon="4.5732">
        <ele>612</ele>
        <time>2012-06-02T13:58:12Z</time>
      </trkpt>
      <trkpt lat="46.02556" lon="4.57324">
        <ele>612</ele>
        <time>2012-06-02T13:58:16Z</time>
      </trkpt>
      <trkpt lat="46.02532" lon="4.57333">
        <ele>613</ele>
        <time>2012-06-02T13:58:29Z</time>
      </trkpt>
      <trkpt lat="46.02512" lon="4.57332">
        <ele>611</ele>
        <time>2012-06-02T13:58:41Z</time>
      </trkpt>
      <trkpt lat="46.02494" lon="4.57325">
        <ele>612</ele>
        <time>2012-06-02T13:58:53Z</time>
      </trkpt>
      <trkpt lat="46.02479" lon="4.57318">
        <ele>614</ele>
        <time>2012-06-02T13:59:04Z</time>
      </trkpt>
      <trkpt lat="46.02456" lon="4.57309">
        <ele>615</ele>
        <time>2012-06-02T13:59:19Z</time>
      </trkpt>
      <trkpt lat="46.0243" lon="4.57299">
        <ele>615</ele>
        <time>2012-06-02T13:59:33Z</time>
      </trkpt>
      <trkpt lat="46.02426" lon="4.57298">
        <ele>615</ele>
        <time>2012-06-02T13:59:38Z</time>
      </trkpt>
      <trkpt lat="46.02402" lon="4.57288">
        <ele>615</ele>
        <time>2012-06-02T13:59:51Z</time>
      </trkpt>
      <trkpt lat="46.02397" lon="4.57279">
        <ele>615</ele>
        <time>2012-06-02T13:59:54Z</time>
      </trkpt>
      <trkpt lat="46.02397" lon="4.57265">
        <ele>617</ele>
        <time>2012-06-02T13:59:59Z</time>
      </trkpt>
      <trkpt lat="46.02412" lon="4.57239">
        <ele>618</ele>
        <time>2012-06-02T14:00:10Z</time>
      </trkpt>
      <trkpt lat="46.02436" lon="4.57209">
        <ele>621</ele>
        <time>2012-06-02T14:00:23Z</time>
      </trkpt>
      <trkpt lat="46.02453" lon="4.57189">
        <ele>621</ele>
        <time>2012-06-02T14:00:34Z</time>
      </trkpt>
      <trkpt lat="46.02484" lon="4.57159">
        <ele>619</ele>
        <time>2012-06-02T14:00:50Z</time>
      </trkpt>
      <trkpt lat="46.02506" lon="4.57141">
        <ele>625</ele>
        <time>2012-06-02T14:01:01Z</time>
      </trkpt>
      <trkpt lat="46.02525" lon="4.57117">
        <ele>624</ele>
        <time>2012-06-02T14:01:12Z</time>
      </trkpt>
      <trkpt lat="46.0255" lon="4.57081">
        <ele>622</ele>
        <time>2012-06-02T14:01:26Z</time>
      </trkpt>
      <trkpt lat="46.02581" lon="4.57041">
        <ele>622</ele>
        <time>2012-06-02T14:01:43Z</time>
      </trkpt>
      <trkpt lat="46.02609" lon="4.57003">
        <ele>631</ele>
        <time>2012-06-02T14:01:58Z</time>
      </trkpt>
      <trkpt lat="46.02625" lon="4.56957">
        <ele>632</ele>
        <time>2012-06-02T14:02:11Z</time>
      </trkpt>
      <trkpt lat="46.02625" lon="4.56909">
        <ele>633</ele>
        <time>2012-06-02T14:02:24Z</time>
      </trkpt>
      <trkpt lat="46.02614" lon="4.56863">
        <ele>634</ele>
        <time>2012-06-02T14:02:37Z</time>
      </trkpt>
      <trkpt lat="46.02602" lon="4.56816">
        <ele>634</ele>
        <time>2012-06-02T14:02:51Z</time>
      </trkpt>
      <trkpt lat="46.02602" lon="4.56774">
        <ele>636</ele>
        <time>2012-06-02T14:03:02Z</time>
      </trkpt>
      <trkpt lat="46.02606" lon="4.56736">
        <ele>633</ele>
        <time>2012-06-02T14:03:12Z</time>
      </trkpt>
      <trkpt lat="46.02602" lon="4.56691">
        <ele>633</ele>
        <time>2012-06-02T14:03:22Z</time>
      </trkpt>
      <trkpt lat="46.02592" lon="4.56626">
        <ele>625</ele>
        <time>2012-06-02T14:03:34Z</time>
      </trkpt>
      <trkpt lat="46.02568" lon="4.56576">
        <ele>628</ele>
        <time>2012-06-02T14:03:45Z</time>
      </trkpt>
      <trkpt lat="46.02549" lon="4.56536">
        <ele>628</ele>
        <time>2012-06-02T14:03:53Z</time>
      </trkpt>
      <trkpt lat="46.02544" lon="4.5652">
        <ele>627</ele>
        <time>2012-06-02T14:03:56Z</time>
      </trkpt>
      <trkpt lat="46.02534" lon="4.56457">
        <ele>622</ele>
        <time>2012-06-02T14:04:08Z</time>
      </trkpt>
      <trkpt lat="46.02525" lon="4.56396">
        <ele>619</ele>
        <time>2012-06-02T14:04:18Z</time>
      </trkpt>
      <trkpt lat="46.02514" lon="4.5633">
        <ele>619</ele>
        <time>2012-06-02T14:04:30Z</time>
      </trkpt>
      <trkpt lat="46.025" lon="4.56279">
        <ele>617</ele>
        <time>2012-06-02T14:04:42Z</time>
      </trkpt>
      <trkpt lat="46.02492" lon="4.56258">
        <ele>620</ele>
        <time>2012-06-02T14:04:48Z</time>
      </trkpt>
      <trkpt lat="46.02486" lon="4.56252">
        <ele>620</ele>
        <time>2012-06-02T14:04:52Z</time>
      </trkpt>
      <trkpt lat="46.02481" lon="4.56249">
        <ele>620</ele>
        <time>2012-06-02T14:05:02Z</time>
      </trkpt>
      <trkpt lat="46.02481" lon="4.56249">
        <ele>620</ele>
        <time>2012-06-02T14:05:06Z</time>
      </trkpt>
      <trkpt lat="46.02483" lon="4.56223">
        <ele>620</ele>
        <time>2012-06-02T14:05:13Z</time>
      </trkpt>
      <trkpt lat="46.02498" lon="4.56194">
        <ele>623</ele>
        <time>2012-06-02T14:05:26Z</time>
      </trkpt>
      <trkpt lat="46.02498" lon="4.56194">
        <ele>623</ele>
        <time>2012-06-02T14:05:36Z</time>
      </trkpt>
      <trkpt lat="46.02502" lon="4.56188">
        <ele>622</ele>
        <time>2012-06-02T14:05:40Z</time>
      </trkpt>
      <trkpt lat="46.02504" lon="4.56184">
        <ele>623</ele>
        <time>2012-06-02T14:05:44Z</time>
      </trkpt>
      <trkpt lat="46.02505" lon="4.56182">
        <ele>623</ele>
        <time>2012-06-02T14:05:48Z</time>
      </trkpt>
      <trkpt lat="46.02502" lon="4.56164">
        <ele>628</ele>
        <time>2012-06-02T14:05:51Z</time>
      </trkpt>
      <trkpt lat="46.02504" lon="4.56153">
        <ele>627</ele>
        <time>2012-06-02T14:05:58Z</time>
      </trkpt>
      <trkpt lat="46.02509" lon="4.56136">
        <ele>626</ele>
        <time>2012-06-02T14:06:08Z</time>
      </trkpt>
      <trkpt lat="46.02511" lon="4.56128">
        <ele>626</ele>
        <time>2012-06-02T14:06:12Z</time>
      </trkpt>
      <trkpt lat="46.02512" lon="4.56122">
        <ele>627</ele>
        <time>2012-06-02T14:06:17Z</time>
      </trkpt>
      <trkpt lat="46.02513" lon="4.56115">
        <ele>627</ele>
        <time>2012-06-02T14:06:22Z</time>
      </trkpt>
      <trkpt lat="46.02514" lon="4.56104">
        <ele>629</ele>
        <time>2012-06-02T14:06:30Z</time>
      </trkpt>
      <trkpt lat="46.02514" lon="4.56104">
        <ele>629</ele>
        <time>2012-06-02T14:06:34Z</time>
      </trkpt>
      <trkpt lat="46.02514" lon="4.56097">
        <ele>630</ele>
        <time>2012-06-02T14:06:36Z</time>
      </trkpt>
      <trkpt lat="46.02514" lon="4.56097">
        <ele>630</ele>
        <time>2012-06-02T14:06:48Z</time>
      </trkpt>
      <trkpt lat="46.02514" lon="4.56097">
        <ele>630</ele>
        <time>2012-06-02T14:06:52Z</time>
      </trkpt>
      <trkpt lat="46.02513" lon="4.56073">
        <ele>635</ele>
        <time>2012-06-02T14:07:00Z</time>
      </trkpt>
      <trkpt lat="46.02512" lon="4.56044">
        <ele>634</ele>
        <time>2012-06-02T14:07:11Z</time>
      </trkpt>
      <trkpt lat="46.0251" lon="4.56027">
        <ele>637</ele>
        <time>2012-06-02T14:07:19Z</time>
      </trkpt>
      <trkpt lat="46.0251" lon="4.56009">
        <ele>641</ele>
        <time>2012-06-02T14:07:28Z</time>
      </trkpt>
      <trkpt lat="46.0251" lon="4.56008">
        <ele>641</ele>
        <time>2012-06-02T14:07:32Z</time>
      </trkpt>
      <trkpt lat="46.0251" lon="4.56007">
        <ele>642</ele>
        <time>2012-06-02T14:07:34Z</time>
      </trkpt>
      <trkpt lat="46.02512" lon="4.56049">
        <ele>634</ele>
        <time>2012-06-02T14:07:47Z</time>
      </trkpt>
      <trkpt lat="46.02512" lon="4.56057">
        <ele>634</ele>
        <time>2012-06-02T14:07:54Z</time>
      </trkpt>
      <trkpt lat="46.02512" lon="4.56054">
        <ele>634</ele>
        <time>2012-06-02T14:07:55Z</time>
      </trkpt>
      <trkpt lat="46.02511" lon="4.56029">
        <ele>636</ele>
        <time>2012-06-02T14:08:06Z</time>
      </trkpt>
      <trkpt lat="46.0251" lon="4.56005">
        <ele>642</ele>
        <time>2012-06-02T14:08:17Z</time>
      </trkpt>
      <trkpt lat="46.02511" lon="4.55976">
        <ele>644</ele>
        <time>2012-06-02T14:08:31Z</time>
      </trkpt>
      <trkpt lat="46.02513" lon="4.55948">
        <ele>646</ele>
        <time>2012-06-02T14:08:40Z</time>
      </trkpt>
      <trkpt lat="46.02513" lon="4.5594">
        <ele>647</ele>
        <time>2012-06-02T14:08:48Z</time>
      </trkpt>
      <trkpt lat="46.02513" lon="4.5594">
        <ele>647</ele>
        <time>2012-06-02T14:08:58Z</time>
      </trkpt>
      <trkpt lat="46.02515" lon="4.55916">
        <ele>658</ele>
        <time>2012-06-02T14:09:08Z</time>
      </trkpt>
      <trkpt lat="46.02515" lon="4.55916">
        <ele>658</ele>
        <time>2012-06-02T14:09:18Z</time>
      </trkpt>
      <trkpt lat="46.02515" lon="4.55916">
        <ele>658</ele>
        <time>2012-06-02T14:09:29Z</time>
      </trkpt>
      <trkpt lat="46.02515" lon="4.55916">
        <ele>658</ele>
        <time>2012-06-02T14:09:32Z</time>
      </trkpt>
      <trkpt lat="46.02515" lon="4.55916">
        <ele>658</ele>
        <time>2012-06-02T14:09:35Z</time>
      </trkpt>
      <trkpt lat="46.02515" lon="4.55916">
        <ele>658</ele>
        <time>2012-06-02T14:09:41Z</time>
      </trkpt>
      <trkpt lat="46.02515" lon="4.55916">
        <ele>658</ele>
        <time>2012-06-02T14:09:44Z</time>
      </trkpt>
      <trkpt lat="46.02523" lon="4.55852">
        <ele>664</ele>
        <time>2012-06-02T14:09:56Z</time>
      </trkpt>
      <trkpt lat="46.02526" lon="4.55841">
        <ele>665</ele>
        <time>2012-06-02T14:10:07Z</time>
      </trkpt>
      <trkpt lat="46.02531" lon="4.55827">
        <ele>675</ele>
        <time>2012-06-02T14:10:18Z</time>
      </trkpt>
      <trkpt lat="46.02531" lon="4.55827">
        <ele>675</ele>
        <time>2012-06-02T14:10:27Z</time>
      </trkpt>
      <trkpt lat="46.02531" lon="4.55827">
        <ele>675</ele>
        <time>2012-06-02T14:10:32Z</time>
      </trkpt>
      <trkpt lat="46.02545" lon="4.558">
        <ele>674</ele>
        <time>2012-06-02T14:10:43Z</time>
      </trkpt>
      <trkpt lat="46.02551" lon="4.55792">
        <ele>674</ele>
        <time>2012-06-02T14:10:52Z</time>
      </trkpt>
      <trkpt lat="46.02561" lon="4.55779">
        <ele>675</ele>
        <time>2012-06-02T14:11:02Z</time>
      </trkpt>
      <trkpt lat="46.02569" lon="4.55771">
        <ele>675</ele>
        <time>2012-06-02T14:11:13Z</time>
      </trkpt>
      <trkpt lat="46.02569" lon="4.55771">
        <ele>675</ele>
        <time>2012-06-02T14:11:27Z</time>
      </trkpt>
      <trkpt lat="46.0259" lon="4.5575">
        <ele>676</ele>
        <time>2012-06-02T14:12:00Z</time>
      </trkpt>
      <trkpt lat="46.0259" lon="4.5575">
        <ele>676</ele>
        <time>2012-06-02T14:12:02Z</time>
      </trkpt>
      <trkpt lat="46.0259" lon="4.5575">
        <ele>676</ele>
        <time>2012-06-02T14:12:08Z</time>
      </trkpt>
      <trkpt lat="46.0259" lon="4.5575">
        <ele>676</ele>
        <time>2012-06-02T14:12:11Z</time>
      </trkpt>
      <trkpt lat="46.02614" lon="4.55728">
        <ele>679</ele>
        <time>2012-06-02T14:12:23Z</time>
      </trkpt>
      <trkpt lat="46.02614" lon="4.55728">
        <ele>679</ele>
        <time>2012-06-02T14:12:31Z</time>
      </trkpt>
      <trkpt lat="46.02614" lon="4.55728">
        <ele>679</ele>
        <time>2012-06-02T14:12:43Z</time>
      </trkpt>
      <trkpt lat="46.02637" lon="4.55705">
        <ele>681</ele>
        <time>2012-06-02T14:12:55Z</time>
      </trkpt>
      <trkpt lat="46.02648" lon="4.5569">
        <ele>682</ele>
        <time>2012-06-02T14:13:04Z</time>
      </trkpt>
      <trkpt lat="46.02655" lon="4.55679">
        <ele>683</ele>
        <time>2012-06-02T14:13:14Z</time>
      </trkpt>
      <trkpt lat="46.02661" lon="4.5567">
        <ele>685</ele>
        <time>2012-06-02T14:13:19Z</time>
      </trkpt>
      <trkpt lat="46.02674" lon="4.5567">
        <ele>685</ele>
        <time>2012-06-02T14:13:28Z</time>
      </trkpt>
      <trkpt lat="46.02674" lon="4.5567">
        <ele>685</ele>
        <time>2012-06-02T14:13:44Z</time>
      </trkpt>
      <trkpt lat="46.02674" lon="4.5567">
        <ele>685</ele>
        <time>2012-06-02T14:14:09Z</time>
      </trkpt>
      <trkpt lat="46.02674" lon="4.5567">
        <ele>685</ele>
        <time>2012-06-02T14:17:36Z</time>
      </trkpt>
      <trkpt lat="46.02677" lon="4.55671">
        <ele>685</ele>
        <time>2012-06-02T14:17:38Z</time>
      </trkpt>
      <trkpt lat="46.02672" lon="4.55669">
        <ele>685</ele>
        <time>2012-06-02T14:17:41Z</time>
      </trkpt>
      <trkpt lat="46.02672" lon="4.55669">
        <ele>685</ele>
        <time>2012-06-02T14:17:47Z</time>
      </trkpt>
      <trkpt lat="46.02677" lon="4.5565">
        <ele>684</ele>
        <time>2012-06-02T14:17:58Z</time>
      </trkpt>
      <trkpt lat="46.02696" lon="4.55637">
        <ele>683</ele>
        <time>2012-06-02T14:18:08Z</time>
      </trkpt>
      <trkpt lat="46.02726" lon="4.55629">
        <ele>682</ele>
        <time>2012-06-02T14:18:16Z</time>
      </trkpt>
      <trkpt lat="46.02748" lon="4.55625">
        <ele>682</ele>
        <time>2012-06-02T14:18:20Z</time>
      </trkpt>
      <trkpt lat="46.02791" lon="4.55608">
        <ele>682</ele>
        <time>2012-06-02T14:18:27Z</time>
      </trkpt>
      <trkpt lat="46.02837" lon="4.55572">
        <ele>676</ele>
        <time>2012-06-02T14:18:35Z</time>
      </trkpt>
      <trkpt lat="46.02857" lon="4.55557">
        <ele>673</ele>
        <time>2012-06-02T14:18:39Z</time>
      </trkpt>
      <trkpt lat="46.02888" lon="4.55536">
        <ele>672</ele>
        <time>2012-06-02T14:18:45Z</time>
      </trkpt>
      <trkpt lat="46.02945" lon="4.55508">
        <ele>670</ele>
        <time>2012-06-02T14:18:55Z</time>
      </trkpt>
      <trkpt lat="46.02984" lon="4.55452">
        <ele>664</ele>
        <time>2012-06-02T14:19:03Z</time>
      </trkpt>
      <trkpt lat="46.03052" lon="4.55394">
        <ele>658</ele>
        <time>2012-06-02T14:19:13Z</time>
      </trkpt>
      <trkpt lat="46.03144" lon="4.55323">
        <ele>654</ele>
        <time>2012-06-02T14:19:26Z</time>
      </trkpt>
      <trkpt lat="46.03149" lon="4.55319">
        <ele>654</ele>
        <time>2012-06-02T14:19:27Z</time>
      </trkpt>
      <trkpt lat="46.03162" lon="4.5533">
        <ele>656</ele>
        <time>2012-06-02T14:19:33Z</time>
      </trkpt>
      <trkpt lat="46.03163" lon="4.55341">
        <ele>657</ele>
        <time>2012-06-02T14:19:35Z</time>
      </trkpt>
      <trkpt lat="46.03173" lon="4.5538">
        <ele>657</ele>
        <time>2012-06-02T14:19:45Z</time>
      </trkpt>
      <trkpt lat="46.03173" lon="4.5538">
        <ele>657</ele>
        <time>2012-06-02T14:20:00Z</time>
      </trkpt>
      <trkpt lat="46.03173" lon="4.5538">
        <ele>657</ele>
        <time>2012-06-02T14:21:23Z</time>
      </trkpt>
      <trkpt lat="46.03164" lon="4.55346">
        <ele>658</ele>
        <time>2012-06-02T14:21:32Z</time>
      </trkpt>
      <trkpt lat="46.03162" lon="4.55333">
        <ele>656</ele>
        <time>2012-06-02T14:21:34Z</time>
      </trkpt>
      <trkpt lat="46.03146" lon="4.55321">
        <ele>654</ele>
        <time>2012-06-02T14:21:40Z</time>
      </trkpt>
      <trkpt lat="46.03143" lon="4.55324">
        <ele>654</ele>
        <time>2012-06-02T14:21:41Z</time>
      </trkpt>
      <trkpt lat="46.03124" lon="4.55339">
        <ele>657</ele>
        <time>2012-06-02T14:21:46Z</time>
      </trkpt>
      <trkpt lat="46.03077" lon="4.55376">
        <ele>657</ele>
        <time>2012-06-02T14:21:58Z</time>
      </trkpt>
      <trkpt lat="46.03033" lon="4.55408">
        <ele>659</ele>
        <time>2012-06-02T14:22:11Z</time>
      </trkpt>
      <trkpt lat="46.02994" lon="4.5544">
        <ele>664</ele>
        <time>2012-06-02T14:22:23Z</time>
      </trkpt>
      <trkpt lat="46.02966" lon="4.55481">
        <ele>666</ele>
        <time>2012-06-02T14:22:34Z</time>
      </trkpt>
      <trkpt lat="46.02937" lon="4.55513">
        <ele>669</ele>
        <time>2012-06-02T14:22:44Z</time>
      </trkpt>
      <trkpt lat="46.02895" lon="4.55531">
        <ele>671</ele>
        <time>2012-06-02T14:22:56Z</time>
      </trkpt>
      <trkpt lat="46.02855" lon="4.55558">
        <ele>674</ele>
        <time>2012-06-02T14:23:09Z</time>
      </trkpt>
      <trkpt lat="46.02821" lon="4.55584">
        <ele>680</ele>
        <time>2012-06-02T14:23:21Z</time>
      </trkpt>
      <trkpt lat="46.02787" lon="4.55611">
        <ele>682</ele>
        <time>2012-06-02T14:23:32Z</time>
      </trkpt>
      <trkpt lat="46.02746" lon="4.55625">
        <ele>682</ele>
        <time>2012-06-02T14:23:44Z</time>
      </trkpt>
      <trkpt lat="46.027" lon="4.55635">
        <ele>683</ele>
        <time>2012-06-02T14:23:57Z</time>
      </trkpt>
      <trkpt lat="46.02671" lon="4.55656">
        <ele>685</ele>
        <time>2012-06-02T14:24:07Z</time>
      </trkpt>
      <trkpt lat="46.02665" lon="4.55663">
        <ele>686</ele>
        <time>2012-06-02T14:24:11Z</time>
      </trkpt>
      <trkpt lat="46.02662" lon="4.55664">
        <ele>685</ele>
        <time>2012-06-02T14:24:15Z</time>
      </trkpt>
      <trkpt lat="46.02662" lon="4.55664">
        <ele>685</ele>
        <time>2012-06-02T14:24:31Z</time>
      </trkpt>
      <trkpt lat="46.02662" lon="4.55664">
        <ele>685</ele>
        <time>2012-06-02T14:24:34Z</time>
      </trkpt>
      <trkpt lat="46.02627" lon="4.55663">
        <ele>685</ele>
        <time>2012-06-02T14:24:45Z</time>
      </trkpt>
      <trkpt lat="46.02596" lon="4.55663">
        <ele>686</ele>
        <time>2012-06-02T14:24:58Z</time>
      </trkpt>
      <trkpt lat="46.02573" lon="4.55668">
        <ele>688</ele>
        <time>2012-06-02T14:25:07Z</time>
      </trkpt>
      <trkpt lat="46.02548" lon="4.55671">
        <ele>688</ele>
        <time>2012-06-02T14:25:19Z</time>
      </trkpt>
      <trkpt lat="46.02548" lon="4.55671">
        <ele>688</ele>
        <time>2012-06-02T14:25:28Z</time>
      </trkpt>
      <trkpt lat="46.02548" lon="4.55671">
        <ele>688</ele>
        <time>2012-06-02T14:25:44Z</time>
      </trkpt>
      <trkpt lat="46.02548" lon="4.55671">
        <ele>688</ele>
        <time>2012-06-02T14:25:58Z</time>
      </trkpt>
      <trkpt lat="46.02569" lon="4.55669">
        <ele>687</ele>
        <time>2012-06-02T14:26:08Z</time>
      </trkpt>
      <trkpt lat="46.02576" lon="4.55668">
        <ele>688</ele>
        <time>2012-06-02T14:26:14Z</time>
      </trkpt>
      <trkpt lat="46.02585" lon="4.55666">
        <ele>688</ele>
        <time>2012-06-02T14:26:18Z</time>
      </trkpt>
      <trkpt lat="46.02585" lon="4.55666">
        <ele>688</ele>
        <time>2012-06-02T14:26:20Z</time>
      </trkpt>
      <trkpt lat="46.02613" lon="4.55663">
        <ele>685</ele>
        <time>2012-06-02T14:26:27Z</time>
      </trkpt>
      <trkpt lat="46.02648" lon="4.55664">
        <ele>685</ele>
        <time>2012-06-02T14:26:33Z</time>
      </trkpt>
      <trkpt lat="46.02666" lon="4.55665">
        <ele>686</ele>
        <time>2012-06-02T14:26:38Z</time>
      </trkpt>
      <trkpt lat="46.02683" lon="4.55644">
        <ele>683</ele>
        <time>2012-06-02T14:26:43Z</time>
      </trkpt>
      <trkpt lat="46.02726" lon="4.55629">
        <ele>682</ele>
        <time>2012-06-02T14:26:50Z</time>
      </trkpt>
      <trkpt lat="46.02748" lon="4.55625">
        <ele>682</ele>
        <time>2012-06-02T14:26:53Z</time>
      </trkpt>
      <trkpt lat="46.02815" lon="4.55589">
        <ele>681</ele>
        <time>2012-06-02T14:27:02Z</time>
      </trkpt>
      <trkpt lat="46.02909" lon="4.55525">
        <ele>670</ele>
        <time>2012-06-02T14:27:14Z</time>
      </trkpt>
      <trkpt lat="46.0295" lon="4.55503">
        <ele>670</ele>
        <time>2012-06-02T14:27:19Z</time>
      </trkpt>
      <trkpt lat="46.02985" lon="4.5545">
        <ele>664</ele>
        <time>2012-06-02T14:27:25Z</time>
      </trkpt>
      <trkpt lat="46.03056" lon="4.55391">
        <ele>658</ele>
        <time>2012-06-02T14:27:34Z</time>
      </trkpt>
      <trkpt lat="46.0314" lon="4.55326">
        <ele>654</ele>
        <time>2012-06-02T14:27:45Z</time>
      </trkpt>
      <trkpt lat="46.03146" lon="4.55322">
        <ele>654</ele>
        <time>2012-06-02T14:27:46Z</time>
      </trkpt>
      <trkpt lat="46.03162" lon="4.55333">
        <ele>656</ele>
        <time>2012-06-02T14:27:52Z</time>
      </trkpt>
      <trkpt lat="46.03163" lon="4.55341">
        <ele>657</ele>
        <time>2012-06-02T14:27:53Z</time>
      </trkpt>
      <trkpt lat="46.03174" lon="4.55384">
        <ele>658</ele>
        <time>2012-06-02T14:28:02Z</time>
      </trkpt>
      <trkpt lat="46.03175" lon="4.55392">
        <ele>658</ele>
        <time>2012-06-02T14:28:08Z</time>
      </trkpt>
      <trkpt lat="46.03177" lon="4.55402">
        <ele>659</ele>
        <time>2012-06-02T14:28:18Z</time>
      </trkpt>
      <trkpt lat="46.03177" lon="4.55402">
        <ele>659</ele>
        <time>2012-06-02T14:28:36Z</time>
      </trkpt>
      <trkpt lat="46.03176" lon="4.55395">
        <ele>658</ele>
        <time>2012-06-02T14:28:49Z</time>
      </trkpt>
      <trkpt lat="46.03176" lon="4.55395">
        <ele>658</ele>
        <time>2012-06-02T14:29:00Z</time>
      </trkpt>
      <trkpt lat="46.03176" lon="4.55395">
        <ele>658</ele>
        <time>2012-06-02T14:29:12Z</time>
      </trkpt>
      <trkpt lat="46.03176" lon="4.55395">
        <ele>658</ele>
        <time>2012-06-02T14:50:17Z</time>
      </trkpt>
      <trkpt lat="46.03172" lon="4.55374">
        <ele>657</ele>
        <time>2012-06-02T14:50:26Z</time>
      </trkpt>
      <trkpt lat="46.03163" lon="4.55337">
        <ele>657</ele>
        <time>2012-06-02T14:50:35Z</time>
      </trkpt>
      <trkpt lat="46.03162" lon="4.55318">
        <ele>655</ele>
        <time>2012-06-02T14:50:39Z</time>
      </trkpt>
      <trkpt lat="46.03148" lon="4.5532">
        <ele>654</ele>
        <time>2012-06-02T14:50:44Z</time>
      </trkpt>
      <trkpt lat="46.0312" lon="4.55342">
        <ele>657</ele>
        <time>2012-06-02T14:51:00Z</time>
      </trkpt>
      <trkpt lat="46.03096" lon="4.5536">
        <ele>657</ele>
        <time>2012-06-02T14:51:12Z</time>
      </trkpt>
      <trkpt lat="46.0307" lon="4.55381">
        <ele>657</ele>
        <time>2012-06-02T14:51:25Z</time>
      </trkpt>
      <trkpt lat="46.03041" lon="4.55402">
        <ele>659</ele>
        <time>2012-06-02T14:51:38Z</time>
      </trkpt>
      <trkpt lat="46.03009" lon="4.55425">
        <ele>664</ele>
        <time>2012-06-02T14:51:52Z</time>
      </trkpt>
      <trkpt lat="46.02986" lon="4.55448">
        <ele>664</ele>
        <time>2012-06-02T14:52:03Z</time>
      </trkpt>
      <trkpt lat="46.02965" lon="4.55483">
        <ele>666</ele>
        <time>2012-06-02T14:52:15Z</time>
      </trkpt>
      <trkpt lat="46.02942" lon="4.55509">
        <ele>669</ele>
        <time>2012-06-02T14:52:26Z</time>
      </trkpt>
      <trkpt lat="46.02906" lon="4.55526">
        <ele>671</ele>
        <time>2012-06-02T14:52:39Z</time>
      </trkpt>
      <trkpt lat="46.02869" lon="4.55548">
        <ele>672</ele>
        <time>2012-06-02T14:52:53Z</time>
      </trkpt>
      <trkpt lat="46.02855" lon="4.55559">
        <ele>674</ele>
        <time>2012-06-02T14:53:03Z</time>
      </trkpt>
      <trkpt lat="46.02845" lon="4.55566">
        <ele>675</ele>
        <time>2012-06-02T14:53:19Z</time>
      </trkpt>
      <trkpt lat="46.02827" lon="4.55579">
        <ele>676</ele>
        <time>2012-06-02T14:53:30Z</time>
      </trkpt>
      <trkpt lat="46.02807" lon="4.55596">
        <ele>681</ele>
        <time>2012-06-02T14:53:40Z</time>
      </trkpt>
      <trkpt lat="46.02782" lon="4.55614">
        <ele>682</ele>
        <time>2012-06-02T14:53:52Z</time>
      </trkpt>
      <trkpt lat="46.02752" lon="4.55624">
        <ele>682</ele>
        <time>2012-06-02T14:54:04Z</time>
      </trkpt>
      <trkpt lat="46.02722" lon="4.5563">
        <ele>682</ele>
        <time>2012-06-02T14:54:16Z</time>
      </trkpt>
      <trkpt lat="46.02692" lon="4.55639">
        <ele>683</ele>
        <time>2012-06-02T14:54:28Z</time>
      </trkpt>
      <trkpt lat="46.02674" lon="4.55653">
        <ele>684</ele>
        <time>2012-06-02T14:54:38Z</time>
      </trkpt>
      <trkpt lat="46.02664" lon="4.55664">
        <ele>686</ele>
        <time>2012-06-02T14:54:48Z</time>
      </trkpt>
      <trkpt lat="46.02632" lon="4.55663">
        <ele>685</ele>
        <time>2012-06-02T14:54:58Z</time>
      </trkpt>
      <trkpt lat="46.02605" lon="4.55662">
        <ele>685</ele>
        <time>2012-06-02T14:55:10Z</time>
      </trkpt>
      <trkpt lat="46.02593" lon="4.55664">
        <ele>686</ele>
        <time>2012-06-02T14:55:17Z</time>
      </trkpt>
      <trkpt lat="46.02579" lon="4.55667">
        <ele>688</ele>
        <time>2012-06-02T14:55:28Z</time>
      </trkpt>
      <trkpt lat="46.02573" lon="4.55668">
        <ele>688</ele>
        <time>2012-06-02T14:55:32Z</time>
      </trkpt>
      <trkpt lat="46.02552" lon="4.55671">
        <ele>688</ele>
        <time>2012-06-02T14:55:46Z</time>
      </trkpt>
      <trkpt lat="46.02548" lon="4.55671">
        <ele>688</ele>
        <time>2012-06-02T14:55:58Z</time>
      </trkpt>
      <trkpt lat="46.02504" lon="4.55671">
        <ele>691</ele>
        <time>2012-06-02T14:56:12Z</time>
      </trkpt>
      <trkpt lat="46.02474" lon="4.55671">
        <ele>694</ele>
        <time>2012-06-02T14:56:28Z</time>
      </trkpt>
      <trkpt lat="46.02449" lon="4.55671">
        <ele>696</ele>
        <time>2012-06-02T14:56:41Z</time>
      </trkpt>
      <trkpt lat="46.0242" lon="4.55671">
        <ele>697</ele>
        <time>2012-06-02T14:56:54Z</time>
      </trkpt>
      <trkpt lat="46.0239" lon="4.55667">
        <ele>697</ele>
        <time>2012-06-02T14:57:07Z</time>
      </trkpt>
      <trkpt lat="46.02375" lon="4.5566">
        <ele>698</ele>
        <time>2012-06-02T14:57:16Z</time>
      </trkpt>
      <trkpt lat="46.02357" lon="4.55669">
        <ele>697</ele>
        <time>2012-06-02T14:57:25Z</time>
      </trkpt>
      <trkpt lat="46.02347" lon="4.55673">
        <ele>698</ele>
        <time>2012-06-02T14:59:01Z</time>
      </trkpt>
      <trkpt lat="46.02337" lon="4.55673">
        <ele>699</ele>
        <time>2012-06-02T14:59:03Z</time>
      </trkpt>
      <trkpt lat="46.02326" lon="4.5567">
        <ele>697</ele>
        <time>2012-06-02T14:59:05Z</time>
      </trkpt>
      <trkpt lat="46.02293" lon="4.55658">
        <ele>701</ele>
        <time>2012-06-02T14:59:11Z</time>
      </trkpt>
      <trkpt lat="46.02242" lon="4.55658">
        <ele>697</ele>
        <time>2012-06-02T14:59:21Z</time>
      </trkpt>
      <trkpt lat="46.02224" lon="4.55657">
        <ele>696</ele>
        <time>2012-06-02T14:59:25Z</time>
      </trkpt>
      <trkpt lat="46.02198" lon="4.55649">
        <ele>695</ele>
        <time>2012-06-02T14:59:29Z</time>
      </trkpt>
      <trkpt lat="46.02169" lon="4.5563">
        <ele>695</ele>
        <time>2012-06-02T14:59:35Z</time>
      </trkpt>
      <trkpt lat="46.0216" lon="4.55627">
        <ele>685</ele>
        <time>2012-06-02T14:59:37Z</time>
      </trkpt>
      <trkpt lat="46.02138" lon="4.55593">
        <ele>686</ele>
        <time>2012-06-02T14:59:42Z</time>
      </trkpt>
      <trkpt lat="46.0213" lon="4.5557">
        <ele>693</ele>
        <time>2012-06-02T14:59:46Z</time>
      </trkpt>
      <trkpt lat="46.02119" lon="4.55531">
        <ele>695</ele>
        <time>2012-06-02T14:59:53Z</time>
      </trkpt>
      <trkpt lat="46.02119" lon="4.55531">
        <ele>695</ele>
        <time>2012-06-02T14:59:56Z</time>
      </trkpt>
      <trkpt lat="46.02089" lon="4.55473">
        <ele>704</ele>
        <time>2012-06-02T15:00:04Z</time>
      </trkpt>
      <trkpt lat="46.02084" lon="4.55467">
        <ele>705</ele>
        <time>2012-06-02T15:00:11Z</time>
      </trkpt>
      <trkpt lat="46.02057" lon="4.55447">
        <ele>694</ele>
        <time>2012-06-02T15:00:21Z</time>
      </trkpt>
      <trkpt lat="46.02031" lon="4.55446">
        <ele>691</ele>
        <time>2012-06-02T15:00:24Z</time>
      </trkpt>
      <trkpt lat="46.01998" lon="4.55449">
        <ele>679</ele>
        <time>2012-06-02T15:00:28Z</time>
      </trkpt>
      <trkpt lat="46.01964" lon="4.55442">
        <ele>677</ele>
        <time>2012-06-02T15:00:33Z</time>
      </trkpt>
      <trkpt lat="46.0193" lon="4.55425">
        <ele>676</ele>
        <time>2012-06-02T15:00:37Z</time>
      </trkpt>
      <trkpt lat="46.01902" lon="4.5544">
        <ele>674</ele>
        <time>2012-06-02T15:00:41Z</time>
      </trkpt>
      <trkpt lat="46.01895" lon="4.5546">
        <ele>672</ele>
        <time>2012-06-02T15:00:43Z</time>
      </trkpt>
      <trkpt lat="46.01884" lon="4.55495">
        <ele>669</ele>
        <time>2012-06-02T15:00:46Z</time>
      </trkpt>
      <trkpt lat="46.01874" lon="4.55519">
        <ele>655</ele>
        <time>2012-06-02T15:00:48Z</time>
      </trkpt>
      <trkpt lat="46.01852" lon="4.55566">
        <ele>651</ele>
        <time>2012-06-02T15:00:53Z</time>
      </trkpt>
      <trkpt lat="46.01822" lon="4.55604">
        <ele>646</ele>
        <time>2012-06-02T15:00:59Z</time>
      </trkpt>
      <trkpt lat="46.01802" lon="4.55625">
        <ele>644</ele>
        <time>2012-06-02T15:01:03Z</time>
      </trkpt>
      <trkpt lat="46.01794" lon="4.55633">
        <ele>644</ele>
        <time>2012-06-02T15:01:10Z</time>
      </trkpt>
      <trkpt lat="46.01766" lon="4.55657">
        <ele>643</ele>
        <time>2012-06-02T15:01:25Z</time>
      </trkpt>
      <trkpt lat="46.01753" lon="4.55675">
        <ele>636</ele>
        <time>2012-06-02T15:01:27Z</time>
      </trkpt>
      <trkpt lat="46.01743" lon="4.55691">
        <ele>634</ele>
        <time>2012-06-02T15:01:29Z</time>
      </trkpt>
      <trkpt lat="46.01718" lon="4.55737">
        <ele>627</ele>
        <time>2012-06-02T15:01:34Z</time>
      </trkpt>
      <trkpt lat="46.01682" lon="4.55735">
        <ele>628</ele>
        <time>2012-06-02T15:01:38Z</time>
      </trkpt>
      <trkpt lat="46.01638" lon="4.55714">
        <ele>635</ele>
        <time>2012-06-02T15:01:43Z</time>
      </trkpt>
      <trkpt lat="46.01605" lon="4.55753">
        <ele>622</ele>
        <time>2012-06-02T15:01:48Z</time>
      </trkpt>
      <trkpt lat="46.01592" lon="4.55812">
        <ele>616</ele>
        <time>2012-06-02T15:01:54Z</time>
      </trkpt>
      <trkpt lat="46.01585" lon="4.55863">
        <ele>605</ele>
        <time>2012-06-02T15:01:58Z</time>
      </trkpt>
      <trkpt lat="46.01578" lon="4.55897">
        <ele>616</ele>
        <time>2012-06-02T15:02:01Z</time>
      </trkpt>
      <trkpt lat="46.01572" lon="4.55922">
        <ele>609</ele>
        <time>2012-06-02T15:02:05Z</time>
      </trkpt>
      <trkpt lat="46.01569" lon="4.55938">
        <ele>610</ele>
        <time>2012-06-02T15:02:08Z</time>
      </trkpt>
      <trkpt lat="46.01566" lon="4.55962">
        <ele>609</ele>
        <time>2012-06-02T15:02:10Z</time>
      </trkpt>
      <trkpt lat="46.01552" lon="4.56001">
        <ele>598</ele>
        <time>2012-06-02T15:02:15Z</time>
      </trkpt>
      <trkpt lat="46.01521" lon="4.56026">
        <ele>602</ele>
        <time>2012-06-02T15:02:21Z</time>
      </trkpt>
      <trkpt lat="46.0151" lon="4.56031">
        <ele>603</ele>
        <time>2012-06-02T15:02:23Z</time>
      </trkpt>
      <trkpt lat="46.01465" lon="4.56065">
        <ele>616</ele>
        <time>2012-06-02T15:02:30Z</time>
      </trkpt>
      <trkpt lat="46.01465" lon="4.56065">
        <ele>616</ele>
        <time>2012-06-02T15:02:31Z</time>
      </trkpt>
      <trkpt lat="46.01456" lon="4.56077">
        <ele>617</ele>
        <time>2012-06-02T15:02:41Z</time>
      </trkpt>
      <trkpt lat="46.01456" lon="4.56077">
        <ele>617</ele>
        <time>2012-06-02T15:02:42Z</time>
      </trkpt>
      <trkpt lat="46.01431" lon="4.56112">
        <ele>603</ele>
        <time>2012-06-02T15:02:50Z</time>
      </trkpt>
      <trkpt lat="46.01419" lon="4.56124">
        <ele>601</ele>
        <time>2012-06-02T15:02:58Z</time>
      </trkpt>
      <trkpt lat="46.01416" lon="4.56127">
        <ele>611</ele>
        <time>2012-06-02T15:02:59Z</time>
      </trkpt>
      <trkpt lat="46.01405" lon="4.56138">
        <ele>609</ele>
        <time>2012-06-02T15:03:02Z</time>
      </trkpt>
      <trkpt lat="46.01395" lon="4.56149">
        <ele>608</ele>
        <time>2012-06-02T15:03:06Z</time>
      </trkpt>
      <trkpt lat="46.0138" lon="4.56166">
        <ele>609</ele>
        <time>2012-06-02T15:03:13Z</time>
      </trkpt>
      <trkpt lat="46.01375" lon="4.56174">
        <ele>603</ele>
        <time>2012-06-02T15:07:07Z</time>
      </trkpt>
      <trkpt lat="46.01345" lon="4.562">
        <ele>605</ele>
        <time>2012-06-02T15:07:15Z</time>
      </trkpt>
      <trkpt lat="46.01341" lon="4.562">
        <ele>605</ele>
        <time>2012-06-02T15:07:17Z</time>
      </trkpt>
      <trkpt lat="46.01328" lon="4.56187">
        <ele>607</ele>
        <time>2012-06-02T15:07:26Z</time>
      </trkpt>
      <trkpt lat="46.01311" lon="4.56146">
        <ele>611</ele>
        <time>2012-06-02T15:07:32Z</time>
      </trkpt>
      <trkpt lat="46.01297" lon="4.56121">
        <ele>613</ele>
        <time>2012-06-02T15:07:35Z</time>
      </trkpt>
      <trkpt lat="46.01267" lon="4.56112">
        <ele>612</ele>
        <time>2012-06-02T15:07:40Z</time>
      </trkpt>
      <trkpt lat="46.01262" lon="4.56121">
        <ele>611</ele>
        <time>2012-06-02T15:07:42Z</time>
      </trkpt>
      <trkpt lat="46.01245" lon="4.56139">
        <ele>609</ele>
        <time>2012-06-02T15:07:46Z</time>
      </trkpt>
      <trkpt lat="46.01206" lon="4.56168">
        <ele>601</ele>
        <time>2012-06-02T15:07:52Z</time>
      </trkpt>
      <trkpt lat="46.01178" lon="4.56183">
        <ele>603</ele>
        <time>2012-06-02T15:07:57Z</time>
      </trkpt>
      <trkpt lat="46.01128" lon="4.56203">
        <ele>604</ele>
        <time>2012-06-02T15:08:08Z</time>
      </trkpt>
      <trkpt lat="46.01094" lon="4.56211">
        <ele>604</ele>
        <time>2012-06-02T15:08:18Z</time>
      </trkpt>
      <trkpt lat="46.01092" lon="4.56211">
        <ele>604</ele>
        <time>2012-06-02T15:08:27Z</time>
      </trkpt>
      <trkpt lat="46.01092" lon="4.56211">
        <ele>604</ele>
        <time>2012-06-02T15:09:37Z</time>
      </trkpt>
      <trkpt lat="46.01121" lon="4.56205">
        <ele>604</ele>
        <time>2012-06-02T15:09:45Z</time>
      </trkpt>
      <trkpt lat="46.0116" lon="4.56189">
        <ele>605</ele>
        <time>2012-06-02T15:09:56Z</time>
      </trkpt>
      <trkpt lat="46.01195" lon="4.56174">
        <ele>602</ele>
        <time>2012-06-02T15:10:07Z</time>
      </trkpt>
      <trkpt lat="46.01211" lon="4.56167">
        <ele>610</ele>
        <time>2012-06-02T15:10:16Z</time>
      </trkpt>
      <trkpt lat="46.01211" lon="4.56167">
        <ele>610</ele>
        <time>2012-06-02T15:10:26Z</time>
      </trkpt>
      <trkpt lat="46.01184" lon="4.5618">
        <ele>603</ele>
        <time>2012-06-02T15:10:36Z</time>
      </trkpt>
      <trkpt lat="46.01147" lon="4.56195">
        <ele>604</ele>
        <time>2012-06-02T15:10:46Z</time>
      </trkpt>
      <trkpt lat="46.01105" lon="4.56208">
        <ele>604</ele>
        <time>2012-06-02T15:10:56Z</time>
      </trkpt>
      <trkpt lat="46.01082" lon="4.56215">
        <ele>609</ele>
        <time>2012-06-02T15:11:04Z</time>
      </trkpt>
      <trkpt lat="46.01078" lon="4.56218">
        <ele>609</ele>
        <time>2012-06-02T15:11:05Z</time>
      </trkpt>
      <trkpt lat="46.01066" lon="4.56226">
        <ele>608</ele>
        <time>2012-06-02T15:11:08Z</time>
      </trkpt>
      <trkpt lat="46.01006" lon="4.56261">
        <ele>599</ele>
        <time>2012-06-02T15:11:17Z</time>
      </trkpt>
      <trkpt lat="46.01" lon="4.56267">
        <ele>598</ele>
        <time>2012-06-02T15:11:18Z</time>
      </trkpt>
      <trkpt lat="46.00972" lon="4.56286">
        <ele>593</ele>
        <time>2012-06-02T15:11:26Z</time>
      </trkpt>
      <trkpt lat="46.00955" lon="4.56303">
        <ele>590</ele>
        <time>2012-06-02T15:11:33Z</time>
      </trkpt>
      <trkpt lat="46.00938" lon="4.56309">
        <ele>588</ele>
        <time>2012-06-02T15:11:38Z</time>
      </trkpt>
      <trkpt lat="46.0093" lon="4.56311">
        <ele>587</ele>
        <time>2012-06-02T15:11:43Z</time>
      </trkpt>
      <trkpt lat="46.00905" lon="4.56308">
        <ele>584</ele>
        <time>2012-06-02T15:11:56Z</time>
      </trkpt>
      <trkpt lat="46.00886" lon="4.56307">
        <ele>584</ele>
        <time>2012-06-02T15:12:06Z</time>
      </trkpt>
      <trkpt lat="46.00873" lon="4.56304">
        <ele>584</ele>
        <time>2012-06-02T15:12:14Z</time>
      </trkpt>
      <trkpt lat="46.00867" lon="4.56301">
        <ele>584</ele>
        <time>2012-06-02T15:12:23Z</time>
      </trkpt>
      <trkpt lat="46.00853" lon="4.56287">
        <ele>585</ele>
        <time>2012-06-02T15:12:36Z</time>
      </trkpt>
      <trkpt lat="46.00853" lon="4.56287">
        <ele>585</ele>
        <time>2012-06-02T15:12:48Z</time>
      </trkpt>
      <trkpt lat="46.00853" lon="4.56287">
        <ele>585</ele>
        <time>2012-06-02T15:12:59Z</time>
      </trkpt>
      <trkpt lat="46.00831" lon="4.56242">
        <ele>590</ele>
        <time>2012-06-02T15:13:11Z</time>
      </trkpt>
      <trkpt lat="46.00823" lon="4.56222">
        <ele>591</ele>
        <time>2012-06-02T15:13:45Z</time>
      </trkpt>
      <trkpt lat="46.00813" lon="4.56197">
        <ele>593</ele>
        <time>2012-06-02T15:13:57Z</time>
      </trkpt>
      <trkpt lat="46.0081" lon="4.56191">
        <ele>594</ele>
        <time>2012-06-02T15:14:01Z</time>
      </trkpt>
      <trkpt lat="46.00805" lon="4.5618">
        <ele>595</ele>
        <time>2012-06-02T15:14:09Z</time>
      </trkpt>
      <trkpt lat="46.00797" lon="4.56162">
        <ele>607</ele>
        <time>2012-06-02T15:14:19Z</time>
      </trkpt>
      <trkpt lat="46.00792" lon="4.56148">
        <ele>607</ele>
        <time>2012-06-02T15:14:30Z</time>
      </trkpt>
      <trkpt lat="46.00792" lon="4.56148">
        <ele>607</ele>
        <time>2012-06-02T15:14:31Z</time>
      </trkpt>
      <trkpt lat="46.00789" lon="4.56142">
        <ele>607</ele>
        <time>2012-06-02T15:14:35Z</time>
      </trkpt>
      <trkpt lat="46.00789" lon="4.56142">
        <ele>607</ele>
        <time>2012-06-02T15:14:44Z</time>
      </trkpt>
      <trkpt lat="46.00789" lon="4.56142">
        <ele>607</ele>
        <time>2012-06-02T15:14:57Z</time>
      </trkpt>
      <trkpt lat="46.00789" lon="4.56142">
        <ele>607</ele>
        <time>2012-06-02T15:15:12Z</time>
      </trkpt>
      <trkpt lat="46.00789" lon="4.56142">
        <ele>607</ele>
        <time>2012-06-02T15:15:37Z</time>
      </trkpt>
      <trkpt lat="46.0076" lon="4.56056">
        <ele>623</ele>
        <time>2012-06-02T15:15:41Z</time>
      </trkpt>
      <trkpt lat="46.0076" lon="4.56056">
        <ele>623</ele>
        <time>2012-06-02T15:15:45Z</time>
      </trkpt>
      <trkpt lat="46.00754" lon="4.56037">
        <ele>626</ele>
        <time>2012-06-02T15:15:48Z</time>
      </trkpt>
      <trkpt lat="46.00754" lon="4.56037">
        <ele>626</ele>
        <time>2012-06-02T15:16:00Z</time>
      </trkpt>
      <trkpt lat="46.00754" lon="4.56037">
        <ele>626</ele>
        <time>2012-06-02T15:16:03Z</time>
      </trkpt>
      <trkpt lat="46.00754" lon="4.56037">
        <ele>626</ele>
        <time>2012-06-02T15:16:14Z</time>
      </trkpt>
      <trkpt lat="46.00754" lon="4.56037">
        <ele>626</ele>
        <time>2012-06-02T15:16:29Z</time>
      </trkpt>
      <trkpt lat="46.00754" lon="4.56037">
        <ele>626</ele>
        <time>2012-06-02T15:16:44Z</time>
      </trkpt>
      <trkpt lat="46.00754" lon="4.56037">
        <ele>626</ele>
        <time>2012-06-02T15:16:56Z</time>
      </trkpt>
      <trkpt lat="46.00721" lon="4.55918">
        <ele>632</ele>
        <time>2012-06-02T15:17:10Z</time>
      </trkpt>
      <trkpt lat="46.00721" lon="4.55918">
        <ele>632</ele>
        <time>2012-06-02T15:17:19Z</time>
      </trkpt>
      <trkpt lat="46.00721" lon="4.55918">
        <ele>632</ele>
        <time>2012-06-02T15:17:34Z</time>
      </trkpt>
      <trkpt lat="46.00721" lon="4.55918">
        <ele>632</ele>
        <time>2012-06-02T15:17:45Z</time>
      </trkpt>
      <trkpt lat="46.00721" lon="4.55918">
        <ele>632</ele>
        <time>2012-06-02T15:17:58Z</time>
      </trkpt>
      <trkpt lat="46.00721" lon="4.55918">
        <ele>632</ele>
        <time>2012-06-02T15:18:14Z</time>
      </trkpt>
      <trkpt lat="46.00721" lon="4.55918">
        <ele>632</ele>
        <time>2012-06-02T15:18:28Z</time>
      </trkpt>
      <trkpt lat="46.00689" lon="4.55797">
        <ele>656</ele>
        <time>2012-06-02T15:18:44Z</time>
      </trkpt>
      <trkpt lat="46.00689" lon="4.55797">
        <ele>656</ele>
        <time>2012-06-02T15:18:56Z</time>
      </trkpt>
      <trkpt lat="46.00689" lon="4.55797">
        <ele>656</ele>
        <time>2012-06-02T15:19:01Z</time>
      </trkpt>
      <trkpt lat="46.00637" lon="4.55774">
        <ele>657</ele>
        <time>2012-06-02T15:19:17Z</time>
      </trkpt>
      <trkpt lat="46.00637" lon="4.55774">
        <ele>657</ele>
        <time>2012-06-02T15:19:31Z</time>
      </trkpt>
      <trkpt lat="46.00637" lon="4.55774">
        <ele>657</ele>
        <time>2012-06-02T15:20:10Z</time>
      </trkpt>
      <trkpt lat="46.00637" lon="4.55774">
        <ele>657</ele>
        <time>2012-06-02T15:20:25Z</time>
      </trkpt>
      <trkpt lat="46.00637" lon="4.55774">
        <ele>657</ele>
        <time>2012-06-02T15:20:39Z</time>
      </trkpt>
      <trkpt lat="46.00637" lon="4.55774">
        <ele>657</ele>
        <time>2012-06-02T15:20:54Z</time>
      </trkpt>
      <trkpt lat="46.00637" lon="4.55774">
        <ele>657</ele>
        <time>2012-06-02T15:21:10Z</time>
      </trkpt>
      <trkpt lat="46.00579" lon="4.55874">
        <ele>664</ele>
        <time>2012-06-02T15:21:25Z</time>
      </trkpt>
      <trkpt lat="46.00579" lon="4.55874">
        <ele>664</ele>
        <time>2012-06-02T15:21:36Z</time>
      </trkpt>
      <trkpt lat="46.00579" lon="4.55874">
        <ele>664</ele>
        <time>2012-06-02T15:21:47Z</time>
      </trkpt>
      <trkpt lat="46.00579" lon="4.55874">
        <ele>664</ele>
        <time>2012-06-02T15:21:48Z</time>
      </trkpt>
      <trkpt lat="46.00579" lon="4.55874">
        <ele>664</ele>
        <time>2012-06-02T15:22:00Z</time>
      </trkpt>
      <trkpt lat="46.00579" lon="4.55874">
        <ele>664</ele>
        <time>2012-06-02T15:22:14Z</time>
      </trkpt>
      <trkpt lat="46.00579" lon="4.55874">
        <ele>664</ele>
        <time>2012-06-02T15:22:30Z</time>
      </trkpt>
      <trkpt lat="46.00579" lon="4.55874">
        <ele>664</ele>
        <time>2012-06-02T15:22:45Z</time>
      </trkpt>
      <trkpt lat="46.00579" lon="4.55874">
        <ele>664</ele>
        <time>2012-06-02T15:22:50Z</time>
      </trkpt>
      <trkpt lat="46.00518" lon="4.55972">
        <ele>659</ele>
        <time>2012-06-02T15:23:00Z</time>
      </trkpt>
      <trkpt lat="46.00518" lon="4.55972">
        <ele>659</ele>
        <time>2012-06-02T15:23:18Z</time>
      </trkpt>
      <trkpt lat="46.00518" lon="4.55972">
        <ele>659</ele>
        <time>2012-06-02T15:23:35Z</time>
      </trkpt>
      <trkpt lat="46.00518" lon="4.55972">
        <ele>659</ele>
        <time>2012-06-02T15:23:54Z</time>
      </trkpt>
      <trkpt lat="46.00444" lon="4.55983">
        <ele>675</ele>
        <time>2012-06-02T15:24:09Z</time>
      </trkpt>
      <trkpt lat="46.00439" lon="4.55982">
        <ele>675</ele>
        <time>2012-06-02T15:24:19Z</time>
      </trkpt>
      <trkpt lat="46.00439" lon="4.55982">
        <ele>675</ele>
        <time>2012-06-02T15:24:32Z</time>
      </trkpt>
      <trkpt lat="46.00439" lon="4.55982">
        <ele>675</ele>
        <time>2012-06-02T15:24:47Z</time>
      </trkpt>
      <trkpt lat="46.00439" lon="4.55982">
        <ele>675</ele>
        <time>2012-06-02T15:25:05Z</time>
      </trkpt>
      <trkpt lat="46.0039" lon="4.55976">
        <ele>681</ele>
        <time>2012-06-02T15:26:23Z</time>
      </trkpt>
      <trkpt lat="46.00383" lon="4.55978">
        <ele>681</ele>
        <time>2012-06-02T15:26:34Z</time>
      </trkpt>
      <trkpt lat="46.00364" lon="4.55982">
        <ele>681</ele>
        <time>2012-06-02T15:26:38Z</time>
      </trkpt>
      <trkpt lat="46.00364" lon="4.55982">
        <ele>681</ele>
        <time>2012-06-02T15:26:42Z</time>
      </trkpt>
      <trkpt lat="46.00364" lon="4.55982">
        <ele>681</ele>
        <time>2012-06-02T15:26:52Z</time>
      </trkpt>
      <trkpt lat="46.00343" lon="4.55986">
        <ele>679</ele>
        <time>2012-06-02T15:27:02Z</time>
      </trkpt>
      <trkpt lat="46.00343" lon="4.55986">
        <ele>679</ele>
        <time>2012-06-02T15:27:16Z</time>
      </trkpt>
      <trkpt lat="46.00343" lon="4.55986">
        <ele>679</ele>
        <time>2012-06-02T15:27:30Z</time>
      </trkpt>
      <trkpt lat="46.00293" lon="4.55946">
        <ele>689</ele>
        <time>2012-06-02T15:27:36Z</time>
      </trkpt>
      <trkpt lat="46.00269" lon="4.55932">
        <ele>693</ele>
        <time>2012-06-02T15:27:46Z</time>
      </trkpt>
      <trkpt lat="46.00265" lon="4.5593">
        <ele>694</ele>
        <time>2012-06-02T15:27:48Z</time>
      </trkpt>
      <trkpt lat="46.00253" lon="4.55927">
        <ele>697</ele>
        <time>2012-06-02T15:27:53Z</time>
      </trkpt>
      <trkpt lat="46.00231" lon="4.55934">
        <ele>699</ele>
        <time>2012-06-02T15:28:02Z</time>
      </trkpt>
      <trkpt lat="46.00214" lon="4.55944">
        <ele>698</ele>
        <time>2012-06-02T15:28:11Z</time>
      </trkpt>
      <trkpt lat="46.00206" lon="4.55951">
        <ele>697</ele>
        <time>2012-06-02T15:28:15Z</time>
      </trkpt>
      <trkpt lat="46.00189" lon="4.5596">
        <ele>697</ele>
        <time>2012-06-02T15:28:26Z</time>
      </trkpt>
      <trkpt lat="46.00181" lon="4.55962">
        <ele>697</ele>
        <time>2012-06-02T15:28:35Z</time>
      </trkpt>
      <trkpt lat="46.0017" lon="4.55964">
        <ele>697</ele>
        <time>2012-06-02T15:28:46Z</time>
      </trkpt>
      <trkpt lat="46.0017" lon="4.55964">
        <ele>697</ele>
        <time>2012-06-02T15:29:27Z</time>
      </trkpt>
      <trkpt lat="46.0017" lon="4.55964">
        <ele>697</ele>
        <time>2012-06-02T15:29:42Z</time>
      </trkpt>
      <trkpt lat="46.00123" lon="4.55974">
        <ele>702</ele>
        <time>2012-06-02T15:29:52Z</time>
      </trkpt>
      <trkpt lat="46.00105" lon="4.55978">
        <ele>702</ele>
        <time>2012-06-02T15:29:59Z</time>
      </trkpt>
      <trkpt lat="46.00101" lon="4.55978">
        <ele>702</ele>
        <time>2012-06-02T15:30:06Z</time>
      </trkpt>
      <trkpt lat="46.00084" lon="4.55976">
        <ele>702</ele>
        <time>2012-06-02T15:30:17Z</time>
      </trkpt>
      <trkpt lat="46.00084" lon="4.55976">
        <ele>702</ele>
        <time>2012-06-02T15:30:21Z</time>
      </trkpt>
      <trkpt lat="46.00071" lon="4.5597">
        <ele>709</ele>
        <time>2012-06-02T15:30:23Z</time>
      </trkpt>
      <trkpt lat="46.00071" lon="4.5597">
        <ele>709</ele>
        <time>2012-06-02T15:30:35Z</time>
      </trkpt>
      <trkpt lat="46.00071" lon="4.5597">
        <ele>709</ele>
        <time>2012-06-02T15:30:37Z</time>
      </trkpt>
      <trkpt lat="46.00051" lon="4.55996">
        <ele>709</ele>
        <time>2012-06-02T15:30:55Z</time>
      </trkpt>
      <trkpt lat="46.00047" lon="4.56056">
        <ele>699</ele>
        <time>2012-06-02T15:31:09Z</time>
      </trkpt>
      <trkpt lat="46.00047" lon="4.56059">
        <ele>699</ele>
        <time>2012-06-02T15:31:10Z</time>
      </trkpt>
      <trkpt lat="46.00041" lon="4.5609">
        <ele>692</ele>
        <time>2012-06-02T15:31:21Z</time>
      </trkpt>
      <trkpt lat="46.00034" lon="4.56095">
        <ele>694</ele>
        <time>2012-06-02T15:31:26Z</time>
      </trkpt>
      <trkpt lat="46.00014" lon="4.56104">
        <ele>698</ele>
        <time>2012-06-02T15:31:38Z</time>
      </trkpt>
      <trkpt lat="46.00014" lon="4.56104">
        <ele>698</ele>
        <time>2012-06-02T15:31:53Z</time>
      </trkpt>
      <trkpt lat="46.00014" lon="4.56104">
        <ele>698</ele>
        <time>2012-06-02T15:32:08Z</time>
      </trkpt>
      <trkpt lat="45.99996" lon="4.56165">
        <ele>702</ele>
        <time>2012-06-02T15:32:24Z</time>
      </trkpt>
      <trkpt lat="45.99998" lon="4.56188">
        <ele>708</ele>
        <time>2012-06-02T15:32:34Z</time>
      </trkpt>
      <trkpt lat="45.99999" lon="4.56198">
        <ele>710</ele>
        <time>2012-06-02T15:32:39Z</time>
      </trkpt>
      <trkpt lat="45.99999" lon="4.56221">
        <ele>710</ele>
        <time>2012-06-02T15:32:48Z</time>
      </trkpt>
      <trkpt lat="45.99999" lon="4.56241">
        <ele>707</ele>
        <time>2012-06-02T15:32:58Z</time>
      </trkpt>
      <trkpt lat="46.00004" lon="4.56273">
        <ele>693</ele>
        <time>2012-06-02T15:33:08Z</time>
      </trkpt>
      <trkpt lat="46.00008" lon="4.56284">
        <ele>691</ele>
        <time>2012-06-02T15:33:11Z</time>
      </trkpt>
      <trkpt lat="46.00002" lon="4.56309">
        <ele>692</ele>
        <time>2012-06-02T15:33:21Z</time>
      </trkpt>
      <trkpt lat="45.99997" lon="4.56329">
        <ele>705</ele>
        <time>2012-06-02T15:33:32Z</time>
      </trkpt>
      <trkpt lat="45.99985" lon="4.56347">
        <ele>709</ele>
        <time>2012-06-02T15:33:44Z</time>
      </trkpt>
      <trkpt lat="45.99981" lon="4.5635">
        <ele>710</ele>
        <time>2012-06-02T15:33:47Z</time>
      </trkpt>
      <trkpt lat="45.99959" lon="4.5637">
        <ele>715</ele>
        <time>2012-06-02T15:34:00Z</time>
      </trkpt>
      <trkpt lat="45.99954" lon="4.56379">
        <ele>715</ele>
        <time>2012-06-02T15:34:09Z</time>
      </trkpt>
      <trkpt lat="45.9995" lon="4.56391">
        <ele>716</ele>
        <time>2012-06-02T15:34:15Z</time>
      </trkpt>
      <trkpt lat="45.99943" lon="4.56429">
        <ele>721</ele>
        <time>2012-06-02T15:34:26Z</time>
      </trkpt>
      <trkpt lat="45.99953" lon="4.56448">
        <ele>720</ele>
        <time>2012-06-02T15:34:37Z</time>
      </trkpt>
      <trkpt lat="45.99967" lon="4.56465">
        <ele>719</ele>
        <time>2012-06-02T15:34:48Z</time>
      </trkpt>
      <trkpt lat="45.99976" lon="4.56476">
        <ele>719</ele>
        <time>2012-06-02T15:34:56Z</time>
      </trkpt>
      <trkpt lat="45.99987" lon="4.56489">
        <ele>718</ele>
        <time>2012-06-02T15:35:03Z</time>
      </trkpt>
      <trkpt lat="45.99999" lon="4.56507">
        <ele>719</ele>
        <time>2012-06-02T15:35:14Z</time>
      </trkpt>
      <trkpt lat="46.00006" lon="4.56524">
        <ele>710</ele>
        <time>2012-06-02T15:35:22Z</time>
      </trkpt>
      <trkpt lat="46.00001" lon="4.56532">
        <ele>709</ele>
        <time>2012-06-02T15:35:30Z</time>
      </trkpt>
      <trkpt lat="45.99995" lon="4.56539">
        <ele>720</ele>
        <time>2012-06-02T15:35:39Z</time>
      </trkpt>
      <trkpt lat="45.99999" lon="4.56534">
        <ele>720</ele>
        <time>2012-06-02T15:35:54Z</time>
      </trkpt>
      <trkpt lat="46.00003" lon="4.56529">
        <ele>709</ele>
        <time>2012-06-02T15:36:04Z</time>
      </trkpt>
      <trkpt lat="45.99993" lon="4.56538">
        <ele>721</ele>
        <time>2012-06-02T15:38:21Z</time>
      </trkpt>
      <trkpt lat="45.99974" lon="4.56548">
        <ele>721</ele>
        <time>2012-06-02T15:38:31Z</time>
      </trkpt>
      <trkpt lat="45.99951" lon="4.56555">
        <ele>723</ele>
        <time>2012-06-02T15:38:42Z</time>
      </trkpt>
      <trkpt lat="45.99931" lon="4.56548">
        <ele>725</ele>
        <time>2012-06-02T15:38:53Z</time>
      </trkpt>
      <trkpt lat="45.99914" lon="4.56549">
        <ele>737</ele>
        <time>2012-06-02T15:39:04Z</time>
      </trkpt>
      <trkpt lat="45.99901" lon="4.56552">
        <ele>738</ele>
        <time>2012-06-02T15:39:15Z</time>
      </trkpt>
      <trkpt lat="45.99886" lon="4.56554">
        <ele>740</ele>
        <time>2012-06-02T15:39:25Z</time>
      </trkpt>
      <trkpt lat="45.99872" lon="4.56559">
        <ele>742</ele>
        <time>2012-06-02T15:39:37Z</time>
      </trkpt>
      <trkpt lat="45.99867" lon="4.56569">
        <ele>743</ele>
        <time>2012-06-02T15:39:48Z</time>
      </trkpt>
      <trkpt lat="45.99866" lon="4.56571">
        <ele>743</ele>
        <time>2012-06-02T15:40:20Z</time>
      </trkpt>
      <trkpt lat="45.99865" lon="4.56584">
        <ele>742</ele>
        <time>2012-06-02T15:40:59Z</time>
      </trkpt>
      <trkpt lat="45.99864" lon="4.5659">
        <ele>743</ele>
        <time>2012-06-02T15:41:02Z</time>
      </trkpt>
      <trkpt lat="45.99857" lon="4.56628">
        <ele>743</ele>
        <time>2012-06-02T15:41:17Z</time>
      </trkpt>
      <trkpt lat="45.99856" lon="4.56631">
        <ele>743</ele>
        <time>2012-06-02T15:41:18Z</time>
      </trkpt>
      <trkpt lat="45.9986" lon="4.56642">
        <ele>743</ele>
        <time>2012-06-02T15:41:22Z</time>
      </trkpt>
      <trkpt lat="45.9986" lon="4.56663">
        <ele>744</ele>
        <time>2012-06-02T15:41:32Z</time>
      </trkpt>
      <trkpt lat="45.99862" lon="4.5667">
        <ele>746</ele>
        <time>2012-06-02T15:41:37Z</time>
      </trkpt>
      <trkpt lat="45.99859" lon="4.5669">
        <ele>746</ele>
        <time>2012-06-02T15:41:48Z</time>
      </trkpt>
      <trkpt lat="45.99859" lon="4.56694">
        <ele>746</ele>
        <time>2012-06-02T15:42:07Z</time>
      </trkpt>
      <trkpt lat="45.99859" lon="4.56713">
        <ele>746</ele>
        <time>2012-06-02T15:42:27Z</time>
      </trkpt>
      <trkpt lat="45.99855" lon="4.56734">
        <ele>749</ele>
        <time>2012-06-02T15:42:41Z</time>
      </trkpt>
      <trkpt lat="45.99852" lon="4.56746">
        <ele>751</ele>
        <time>2012-06-02T15:43:03Z</time>
      </trkpt>
      <trkpt lat="45.9985" lon="4.56772">
        <ele>755</ele>
        <time>2012-06-02T15:43:19Z</time>
      </trkpt>
      <trkpt lat="45.99849" lon="4.568">
        <ele>756</ele>
        <time>2012-06-02T15:43:35Z</time>
      </trkpt>
      <trkpt lat="45.99854" lon="4.56819">
        <ele>758</ele>
        <time>2012-06-02T15:43:49Z</time>
      </trkpt>
      <trkpt lat="45.99849" lon="4.5685">
        <ele>765</ele>
        <time>2012-06-02T15:44:07Z</time>
      </trkpt>
      <trkpt lat="45.9985" lon="4.56866">
        <ele>764</ele>
        <time>2012-06-02T15:44:23Z</time>
      </trkpt>
      <trkpt lat="45.99859" lon="4.56899">
        <ele>764</ele>
        <time>2012-06-02T15:44:41Z</time>
      </trkpt>
      <trkpt lat="45.99861" lon="4.56931">
        <ele>769</ele>
        <time>2012-06-02T15:44:58Z</time>
      </trkpt>
      <trkpt lat="45.99863" lon="4.56938">
        <ele>769</ele>
        <time>2012-06-02T15:45:02Z</time>
      </trkpt>
      <trkpt lat="45.99867" lon="4.56965">
        <ele>769</ele>
        <time>2012-06-02T15:45:12Z</time>
      </trkpt>
      <trkpt lat="45.99866" lon="4.56979">
        <ele>769</ele>
        <time>2012-06-02T15:45:18Z</time>
      </trkpt>
      <trkpt lat="45.99866" lon="4.56996">
        <ele>770</ele>
        <time>2012-06-02T15:45:25Z</time>
      </trkpt>
      <trkpt lat="45.99866" lon="4.57001">
        <ele>770</ele>
        <time>2012-06-02T15:45:38Z</time>
      </trkpt>
      <trkpt lat="45.99865" lon="4.57">
        <ele>770</ele>
        <time>2012-06-02T15:48:34Z</time>
      </trkpt>
      <trkpt lat="45.9987" lon="4.57006">
        <ele>770</ele>
        <time>2012-06-02T15:48:38Z</time>
      </trkpt>
      <trkpt lat="45.99866" lon="4.5703">
        <ele>769</ele>
        <time>2012-06-02T15:48:42Z</time>
      </trkpt>
      <trkpt lat="45.99859" lon="4.57084">
        <ele>761</ele>
        <time>2012-06-02T15:48:51Z</time>
      </trkpt>
      <trkpt lat="45.99841" lon="4.57127">
        <ele>756</ele>
        <time>2012-06-02T15:48:58Z</time>
      </trkpt>
      <trkpt lat="45.99819" lon="4.57159">
        <ele>754</ele>
        <time>2012-06-02T15:49:04Z</time>
      </trkpt>
      <trkpt lat="45.99785" lon="4.57197">
        <ele>740</ele>
        <time>2012-06-02T15:49:10Z</time>
      </trkpt>
      <trkpt lat="45.99778" lon="4.57205">
        <ele>739</ele>
        <time>2012-06-02T15:49:12Z</time>
      </trkpt>
      <trkpt lat="45.9976" lon="4.57223">
        <ele>737</ele>
        <time>2012-06-02T15:49:17Z</time>
      </trkpt>
      <trkpt lat="45.9974" lon="4.57238">
        <ele>732</ele>
        <time>2012-06-02T15:49:21Z</time>
      </trkpt>
      <trkpt lat="45.99705" lon="4.57262">
        <ele>720</ele>
        <time>2012-06-02T15:49:28Z</time>
      </trkpt>
      <trkpt lat="45.99681" lon="4.57277">
        <ele>719</ele>
        <time>2012-06-02T15:49:34Z</time>
      </trkpt>
      <trkpt lat="45.99668" lon="4.57301">
        <ele>716</ele>
        <time>2012-06-02T15:49:38Z</time>
      </trkpt>
      <trkpt lat="45.9965" lon="4.57352">
        <ele>701</ele>
        <time>2012-06-02T15:49:45Z</time>
      </trkpt>
      <trkpt lat="45.99623" lon="4.57394">
        <ele>693</ele>
        <time>2012-06-02T15:49:53Z</time>
      </trkpt>
      <trkpt lat="45.99607" lon="4.57419">
        <ele>684</ele>
        <time>2012-06-02T15:50:00Z</time>
      </trkpt>
      <trkpt lat="45.99606" lon="4.57423">
        <ele>684</ele>
        <time>2012-06-02T15:50:11Z</time>
      </trkpt>
      <trkpt lat="45.99599" lon="4.57463">
        <ele>683</ele>
        <time>2012-06-02T15:50:31Z</time>
      </trkpt>
      <trkpt lat="45.99589" lon="4.57507">
        <ele>674</ele>
        <time>2012-06-02T15:50:37Z</time>
      </trkpt>
      <trkpt lat="45.99579" lon="4.57535">
        <ele>665</ele>
        <time>2012-06-02T15:50:41Z</time>
      </trkpt>
      <trkpt lat="45.99561" lon="4.576">
        <ele>652</ele>
        <time>2012-06-02T15:50:48Z</time>
      </trkpt>
      <trkpt lat="45.99559" lon="4.57609">
        <ele>650</ele>
        <time>2012-06-02T15:50:55Z</time>
      </trkpt>
      <trkpt lat="45.99559" lon="4.57609">
        <ele>650</ele>
        <time>2012-06-02T15:51:05Z</time>
      </trkpt>
      <trkpt lat="45.99559" lon="4.57609">
        <ele>650</ele>
        <time>2012-06-02T15:51:33Z</time>
      </trkpt>
      <trkpt lat="45.99516" lon="4.57596">
        <ele>651</ele>
        <time>2012-06-02T15:51:45Z</time>
      </trkpt>
      <trkpt lat="45.99512" lon="4.57591">
        <ele>651</ele>
        <time>2012-06-02T15:51:47Z</time>
      </trkpt>
      <trkpt lat="45.99502" lon="4.57575">
        <ele>655</ele>
        <time>2012-06-02T15:51:52Z</time>
      </trkpt>
      <trkpt lat="45.99495" lon="4.57538">
        <ele>645</ele>
        <time>2012-06-02T15:52:03Z</time>
      </trkpt>
      <trkpt lat="45.99495" lon="4.57533">
        <ele>645</ele>
        <time>2012-06-02T15:52:12Z</time>
      </trkpt>
      <trkpt lat="45.99495" lon="4.57519">
        <ele>647</ele>
        <time>2012-06-02T15:52:21Z</time>
      </trkpt>
      <trkpt lat="45.99495" lon="4.57519">
        <ele>647</ele>
        <time>2012-06-02T15:52:23Z</time>
      </trkpt>
      <trkpt lat="45.99481" lon="4.57528">
        <ele>644</ele>
        <time>2012-06-02T15:52:30Z</time>
      </trkpt>
      <trkpt lat="45.99463" lon="4.57564">
        <ele>640</ele>
        <time>2012-06-02T15:52:39Z</time>
      </trkpt>
      <trkpt lat="45.99445" lon="4.57592">
        <ele>635</ele>
        <time>2012-06-02T15:52:46Z</time>
      </trkpt>
      <trkpt lat="45.99427" lon="4.57618">
        <ele>634</ele>
        <time>2012-06-02T15:52:55Z</time>
      </trkpt>
      <trkpt lat="45.99427" lon="4.57618">
        <ele>634</ele>
        <time>2012-06-02T15:53:04Z</time>
      </trkpt>
      <trkpt lat="45.99417" lon="4.57635">
        <ele>634</ele>
        <time>2012-06-02T15:54:44Z</time>
      </trkpt>
      <trkpt lat="45.99404" lon="4.57664">
        <ele>622</ele>
        <time>2012-06-02T15:54:52Z</time>
      </trkpt>
      <trkpt lat="45.99392" lon="4.57694">
        <ele>616</ele>
        <time>2012-06-02T15:55:00Z</time>
      </trkpt>
      <trkpt lat="45.99389" lon="4.57701">
        <ele>616</ele>
        <time>2012-06-02T15:55:02Z</time>
      </trkpt>
      <trkpt lat="45.99382" lon="4.57714">
        <ele>614</ele>
        <time>2012-06-02T15:55:05Z</time>
      </trkpt>
      <trkpt lat="45.99374" lon="4.57726">
        <ele>613</ele>
        <time>2012-06-02T15:55:07Z</time>
      </trkpt>
      <trkpt lat="45.99362" lon="4.57755">
        <ele>612</ele>
        <time>2012-06-02T15:55:12Z</time>
      </trkpt>
      <trkpt lat="45.99351" lon="4.57774">
        <ele>611</ele>
        <time>2012-06-02T15:55:17Z</time>
      </trkpt>
      <trkpt lat="45.99336" lon="4.57801">
        <ele>612</ele>
        <time>2012-06-02T15:55:23Z</time>
      </trkpt>
      <trkpt lat="45.99323" lon="4.57828">
        <ele>599</ele>
        <time>2012-06-02T15:55:27Z</time>
      </trkpt>
      <trkpt lat="45.993" lon="4.57856">
        <ele>596</ele>
        <time>2012-06-02T15:55:32Z</time>
      </trkpt>
      <trkpt lat="45.99287" lon="4.57875">
        <ele>594</ele>
        <time>2012-06-02T15:55:35Z</time>
      </trkpt>
      <trkpt lat="45.9927" lon="4.57905">
        <ele>591</ele>
        <time>2012-06-02T15:55:39Z</time>
      </trkpt>
      <trkpt lat="45.99246" lon="4.57934">
        <ele>578</ele>
        <time>2012-06-02T15:55:44Z</time>
      </trkpt>
      <trkpt lat="45.99211" lon="4.57979">
        <ele>574</ele>
        <time>2012-06-02T15:55:50Z</time>
      </trkpt>
      <trkpt lat="45.99171" lon="4.58046">
        <ele>576</ele>
        <time>2012-06-02T15:55:58Z</time>
      </trkpt>
      <trkpt lat="45.99145" lon="4.58094">
        <ele>562</ele>
        <time>2012-06-02T15:56:04Z</time>
      </trkpt>
      <trkpt lat="45.99128" lon="4.58129">
        <ele>558</ele>
        <time>2012-06-02T15:56:09Z</time>
      </trkpt>
      <trkpt lat="45.99128" lon="4.58154">
        <ele>558</ele>
        <time>2012-06-02T15:56:12Z</time>
      </trkpt>
      <trkpt lat="45.9914" lon="4.5821">
        <ele>551</ele>
        <time>2012-06-02T15:56:18Z</time>
      </trkpt>
      <trkpt lat="45.99149" lon="4.58224">
        <ele>551</ele>
        <time>2012-06-02T15:56:20Z</time>
      </trkpt>
      <trkpt lat="45.99197" lon="4.58278">
        <ele>553</ele>
        <time>2012-06-02T15:56:28Z</time>
      </trkpt>
      <trkpt lat="45.99222" lon="4.58312">
        <ele>552</ele>
        <time>2012-06-02T15:56:33Z</time>
      </trkpt>
      <trkpt lat="45.99242" lon="4.58343">
        <ele>546</ele>
        <time>2012-06-02T15:56:38Z</time>
      </trkpt>
      <trkpt lat="45.99248" lon="4.58357">
        <ele>542</ele>
        <time>2012-06-02T15:56:44Z</time>
      </trkpt>
      <trkpt lat="45.99255" lon="4.5838">
        <ele>550</ele>
        <time>2012-06-02T15:57:30Z</time>
      </trkpt>
      <trkpt lat="45.99265" lon="4.58469">
        <ele>540</ele>
        <time>2012-06-02T15:57:40Z</time>
      </trkpt>
      <trkpt lat="45.99269" lon="4.58542">
        <ele>535</ele>
        <time>2012-06-02T15:57:48Z</time>
      </trkpt>
      <trkpt lat="45.99292" lon="4.58615">
        <ele>533</ele>
        <time>2012-06-02T15:57:57Z</time>
      </trkpt>
      <trkpt lat="45.99293" lon="4.58653">
        <ele>533</ele>
        <time>2012-06-02T15:58:02Z</time>
      </trkpt>
      <trkpt lat="45.99291" lon="4.58703">
        <ele>533</ele>
        <time>2012-06-02T15:58:14Z</time>
      </trkpt>
      <trkpt lat="45.99292" lon="4.58716">
        <ele>533</ele>
        <time>2012-06-02T15:58:22Z</time>
      </trkpt>
      <trkpt lat="45.99293" lon="4.58717">
        <ele>533</ele>
        <time>2012-06-02T15:58:34Z</time>
      </trkpt>
      <trkpt lat="45.99295" lon="4.58739">
        <ele>534</ele>
        <time>2012-06-02T15:59:23Z</time>
      </trkpt>
      <trkpt lat="45.99289" lon="4.5879">
        <ele>535</ele>
        <time>2012-06-02T15:59:37Z</time>
      </trkpt>
      <trkpt lat="45.99269" lon="4.5884">
        <ele>533</ele>
        <time>2012-06-02T15:59:49Z</time>
      </trkpt>
      <trkpt lat="45.99246" lon="4.58887">
        <ele>527</ele>
        <time>2012-06-02T16:00:01Z</time>
      </trkpt>
      <trkpt lat="45.99232" lon="4.58932">
        <ele>528</ele>
        <time>2012-06-02T16:00:11Z</time>
      </trkpt>
      <trkpt lat="45.9922" lon="4.58969">
        <ele>526</ele>
        <time>2012-06-02T16:00:20Z</time>
      </trkpt>
      <trkpt lat="45.99207" lon="4.59009">
        <ele>524</ele>
        <time>2012-06-02T16:00:28Z</time>
      </trkpt>
      <trkpt lat="45.99192" lon="4.59084">
        <ele>521</ele>
        <time>2012-06-02T16:00:37Z</time>
      </trkpt>
      <trkpt lat="45.99188" lon="4.59159">
        <ele>520</ele>
        <time>2012-06-02T16:00:47Z</time>
      </trkpt>
      <trkpt lat="45.99181" lon="4.59233">
        <ele>518</ele>
        <time>2012-06-02T16:00:57Z</time>
      </trkpt>
      <trkpt lat="45.99174" lon="4.59272">
        <ele>518</ele>
        <time>2012-06-02T16:01:03Z</time>
      </trkpt>
      <trkpt lat="45.99146" lon="4.5933">
        <ele>516</ele>
        <time>2012-06-02T16:01:16Z</time>
      </trkpt>
      <trkpt lat="45.99153" lon="4.59339">
        <ele>518</ele>
        <time>2012-06-02T16:01:23Z</time>
      </trkpt>
      <trkpt lat="45.9918" lon="4.59346">
        <ele>519</ele>
        <time>2012-06-02T16:01:34Z</time>
      </trkpt>
      <trkpt lat="45.992" lon="4.59352">
        <ele>520</ele>
        <time>2012-06-02T16:01:45Z</time>
      </trkpt>
      <trkpt lat="45.99229" lon="4.59359">
        <ele>521</ele>
        <time>2012-06-02T16:01:57Z</time>
      </trkpt>
      <trkpt lat="45.99262" lon="4.59368">
        <ele>520</ele>
        <time>2012-06-02T16:02:10Z</time>
      </trkpt>
      <trkpt lat="45.99295" lon="4.59378">
        <ele>520</ele>
        <time>2012-06-02T16:02:22Z</time>
      </trkpt>
      <trkpt lat="45.99307" lon="4.59382">
        <ele>519</ele>
        <time>2012-06-02T16:02:30Z</time>
      </trkpt>
      <trkpt lat="45.99311" lon="4.59384">
        <ele>519</ele>
        <time>2012-06-02T16:02:41Z</time>
      </trkpt>
      <trkpt lat="45.99329" lon="4.59389">
        <ele>519</ele>
        <time>2012-06-02T16:02:53Z</time>
      </trkpt>
      <trkpt lat="45.99362" lon="4.59398">
        <ele>514</ele>
        <time>2012-06-02T16:03:00Z</time>
      </trkpt>
      <trkpt lat="45.99407" lon="4.59443">
        <ele>508</ele>
        <time>2012-06-02T16:03:11Z</time>
      </trkpt>
      <trkpt lat="45.99424" lon="4.59458">
        <ele>500</ele>
        <time>2012-06-02T16:03:14Z</time>
      </trkpt>
      <trkpt lat="45.9943" lon="4.59494">
        <ele>499</ele>
        <time>2012-06-02T16:03:20Z</time>
      </trkpt>
      <trkpt lat="45.99433" lon="4.59566">
        <ele>496</ele>
        <time>2012-06-02T16:03:29Z</time>
      </trkpt>
      <trkpt lat="45.99436" lon="4.59633">
        <ele>496</ele>
        <time>2012-06-02T16:03:37Z</time>
      </trkpt>
      <trkpt lat="45.9944" lon="4.59728">
        <ele>497</ele>
        <time>2012-06-02T16:03:48Z</time>
      </trkpt>
      <trkpt lat="45.99445" lon="4.59799">
        <ele>495</ele>
        <time>2012-06-02T16:03:57Z</time>
      </trkpt>
      <trkpt lat="45.99461" lon="4.59882">
        <ele>493</ele>
        <time>2012-06-02T16:04:09Z</time>
      </trkpt>
      <trkpt lat="45.99467" lon="4.59928">
        <ele>490</ele>
        <time>2012-06-02T16:04:14Z</time>
      </trkpt>
      <trkpt lat="45.99465" lon="4.60036">
        <ele>486</ele>
        <time>2012-06-02T16:04:24Z</time>
      </trkpt>
      <trkpt lat="45.99465" lon="4.60088">
        <ele>484</ele>
        <time>2012-06-02T16:04:32Z</time>
      </trkpt>
      <trkpt lat="45.99465" lon="4.60088">
        <ele>484</ele>
        <time>2012-06-02T16:04:47Z</time>
      </trkpt>
      <trkpt lat="45.99465" lon="4.60088">
        <ele>484</ele>
        <time>2012-06-02T16:05:23Z</time>
      </trkpt>
      <trkpt lat="45.99465" lon="4.60056">
        <ele>486</ele>
        <time>2012-06-02T16:05:33Z</time>
      </trkpt>
      <trkpt lat="45.99498" lon="4.6001">
        <ele>480</ele>
        <time>2012-06-02T16:05:44Z</time>
      </trkpt>
      <trkpt lat="45.9953" lon="4.59958">
        <ele>475</ele>
        <time>2012-06-02T16:05:57Z</time>
      </trkpt>
      <trkpt lat="45.99558" lon="4.59915">
        <ele>478</ele>
        <time>2012-06-02T16:06:09Z</time>
      </trkpt>
      <trkpt lat="45.99563" lon="4.5991">
        <ele>477</ele>
        <time>2012-06-02T16:06:17Z</time>
      </trkpt>
      <trkpt lat="45.99577" lon="4.59901">
        <ele>477</ele>
        <time>2012-06-02T16:06:47Z</time>
      </trkpt>
      <trkpt lat="45.99607" lon="4.59883">
        <ele>474</ele>
        <time>2012-06-02T16:06:56Z</time>
      </trkpt>
      <trkpt lat="45.99644" lon="4.59863">
        <ele>474</ele>
        <time>2012-06-02T16:07:06Z</time>
      </trkpt>
      <trkpt lat="45.99694" lon="4.59867">
        <ele>471</ele>
        <time>2012-06-02T16:07:17Z</time>
      </trkpt>
      <trkpt lat="45.99707" lon="4.5987">
        <ele>470</ele>
        <time>2012-06-02T16:07:19Z</time>
      </trkpt>
      <trkpt lat="45.9973" lon="4.59861">
        <ele>470</ele>
        <time>2012-06-02T16:07:23Z</time>
      </trkpt>
      <trkpt lat="45.99777" lon="4.59852">
        <ele>467</ele>
        <time>2012-06-02T16:07:30Z</time>
      </trkpt>
      <trkpt lat="45.99803" lon="4.59842">
        <ele>466</ele>
        <time>2012-06-02T16:07:34Z</time>
      </trkpt>
      <trkpt lat="45.99854" lon="4.59831">
        <ele>457</ele>
        <time>2012-06-02T16:07:42Z</time>
      </trkpt>
      <trkpt lat="45.99866" lon="4.59823">
        <ele>454</ele>
        <time>2012-06-02T16:07:45Z</time>
      </trkpt>
      <trkpt lat="45.99911" lon="4.59819">
        <ele>449</ele>
        <time>2012-06-02T16:07:53Z</time>
      </trkpt>
      <trkpt lat="45.99932" lon="4.59809">
        <ele>442</ele>
        <time>2012-06-02T16:07:59Z</time>
      </trkpt>
      <trkpt lat="45.99948" lon="4.59799">
        <ele>440</ele>
        <time>2012-06-02T16:08:07Z</time>
      </trkpt>
      <trkpt lat="45.9997" lon="4.59793">
        <ele>438</ele>
        <time>2012-06-02T16:08:26Z</time>
      </trkpt>
      <trkpt lat="45.99994" lon="4.59728">
        <ele>433</ele>
        <time>2012-06-02T16:08:27Z</time>
      </trkpt>
      <trkpt lat="45.99999" lon="4.59731">
        <ele>433</ele>
        <time>2012-06-02T16:08:29Z</time>
      </trkpt>
      <trkpt lat="46.00061" lon="4.59789">
        <ele>424</ele>
        <time>2012-06-02T16:08:37Z</time>
      </trkpt>
      <trkpt lat="46.00089" lon="4.59818">
        <ele>413</ele>
        <time>2012-06-02T16:08:43Z</time>
      </trkpt>
      <trkpt lat="46.00118" lon="4.59826">
        <ele>410</ele>
        <time>2012-06-02T16:08:48Z</time>
      </trkpt>
      <trkpt lat="46.00149" lon="4.59831">
        <ele>404</ele>
        <time>2012-06-02T16:08:54Z</time>
      </trkpt>
      <trkpt lat="46.00164" lon="4.59832">
        <ele>399</ele>
        <time>2012-06-02T16:08:59Z</time>
      </trkpt>
      <trkpt lat="46.00164" lon="4.59829">
        <ele>400</ele>
        <time>2012-06-02T16:09:07Z</time>
      </trkpt>
      <trkpt lat="46.00255" lon="4.59834">
        <ele>377</ele>
        <time>2012-06-02T16:09:15Z</time>
      </trkpt>
      <trkpt lat="46.00257" lon="4.59835">
        <ele>376</ele>
        <time>2012-06-02T16:09:23Z</time>
      </trkpt>
      <trkpt lat="46.00262" lon="4.59838">
        <ele>375</ele>
        <time>2012-06-02T16:09:48Z</time>
      </trkpt>
      <trkpt lat="46.00305" lon="4.59861">
        <ele>371</ele>
        <time>2012-06-02T16:09:55Z</time>
      </trkpt>
      <trkpt lat="46.00329" lon="4.59871">
        <ele>370</ele>
        <time>2012-06-02T16:09:59Z</time>
      </trkpt>
      <trkpt lat="46.00368" lon="4.59865">
        <ele>364</ele>
        <time>2012-06-02T16:10:07Z</time>
      </trkpt>
      <trkpt lat="46.00397" lon="4.5986">
        <ele>363</ele>
        <time>2012-06-02T16:10:12Z</time>
      </trkpt>
      <trkpt lat="46.00438" lon="4.59895">
        <ele>355</ele>
        <time>2012-06-02T16:10:20Z</time>
      </trkpt>
      <trkpt lat="46.00449" lon="4.59901">
        <ele>354</ele>
        <time>2012-06-02T16:10:22Z</time>
      </trkpt>
      <trkpt lat="46.00484" lon="4.59913">
        <ele>349</ele>
        <time>2012-06-02T16:10:29Z</time>
      </trkpt>
      <trkpt lat="46.00511" lon="4.59921">
        <ele>342</ele>
        <time>2012-06-02T16:10:36Z</time>
      </trkpt>
      <trkpt lat="46.00511" lon="4.59921">
        <ele>342</ele>
        <time>2012-06-02T16:10:51Z</time>
      </trkpt>
      <trkpt lat="46.00517" lon="4.59922">
        <ele>342</ele>
        <time>2012-06-02T16:11:08Z</time>
      </trkpt>
      <trkpt lat="46.00536" lon="4.59902">
        <ele>344</ele>
        <time>2012-06-02T16:11:16Z</time>
      </trkpt>
      <trkpt lat="46.00561" lon="4.59882">
        <ele>344</ele>
        <time>2012-06-02T16:11:24Z</time>
      </trkpt>
      <trkpt lat="46.00598" lon="4.59874">
        <ele>347</ele>
        <time>2012-06-02T16:11:34Z</time>
      </trkpt>
      <trkpt lat="46.00608" lon="4.59873">
        <ele>348</ele>
        <time>2012-06-02T16:11:38Z</time>
      </trkpt>
      <trkpt lat="46.00611" lon="4.59883">
        <ele>348</ele>
        <time>2012-06-02T16:11:45Z</time>
      </trkpt>
      <trkpt lat="46.00611" lon="4.599">
        <ele>348</ele>
        <time>2012-06-02T16:11:51Z</time>
      </trkpt>
      <trkpt lat="46.00611" lon="4.599">
        <ele>348</ele>
        <time>2012-06-02T16:11:52Z</time>
      </trkpt>
      <trkpt lat="46.00611" lon="4.599">
        <ele>348</ele>
        <time>2012-06-02T16:11:54Z</time>
      </trkpt>
      <trkpt lat="46.00609" lon="4.59975">
        <ele>345</ele>
        <time>2012-06-02T16:12:01Z</time>
      </trkpt>
      <trkpt lat="46.00608" lon="4.60052">
        <ele>342</ele>
        <time>2012-06-02T16:12:11Z</time>
      </trkpt>
      <trkpt lat="46.00607" lon="4.60067">
        <ele>342</ele>
        <time>2012-06-02T16:12:13Z</time>
      </trkpt>
      <trkpt lat="46.00619" lon="4.60077">
        <ele>343</ele>
        <time>2012-06-02T16:12:18Z</time>
      </trkpt>
      <trkpt lat="46.00628" lon="4.60078">
        <ele>343</ele>
        <time>2012-06-02T16:12:22Z</time>
      </trkpt>
      <trkpt lat="46.0063" lon="4.60089">
        <ele>344</ele>
        <time>2012-06-02T16:12:27Z</time>
      </trkpt>
      <trkpt lat="46.00628" lon="4.601">
        <ele>344</ele>
        <time>2012-06-02T16:12:35Z</time>
      </trkpt>
    </trkseg>
  </trk>
</gpx>